Data for 09/12/2011

Time Sea-Level Adjusted Pressure Absolute Pressure Temperature Relative Humidity Dew Point Precipitation   
(mb) (inHg) (mb) (inHg) (C) (F) (%) (C) (F) (mm) (in)
00:01 1022 30.18 851 25.13 13.1 55.6 44 1.1 33.9 -88 -3.465
00:02 1022 30.18 851 25.13 13.1 55.5 44 1.2 34.2 -88 -3.465
00:03 1022 30.18 851 25.13 13 55.3 45 1.3 34.3 -88 -3.465
00:04 1022 30.18 851 25.13 12.9 55.2 44 0.8 33.5 -88 -3.465
00:05 1022 30.18 851 25.13 12.9 55.2 45 1.2 34.1 -88 -3.465
00:06 1022 30.18 851 25.13 12.7 54.9 46 1.5 34.6 -88 -3.465
00:07 1022 30.18 851 25.13 12.5 54.5 45 1.1 34 -88 -3.465
00:08 1022 30.18 851 25.13 12.4 54.4 46 1.3 34.4 -88 -3.465
00:09 1022 30.18 851 25.13 12.3 54.2 47 1.4 34.5 -88.1 -3.469
00:10 1022 30.18 851 25.13 12.2 53.9 48 1.5 34.6 -88.1 -3.469
00:11 1022 30.18 851 25.13 11.8 53.3 49 1.6 35 -88.1 -3.469
00:12 1022 30.18 851 25.13 11.5 52.7 50 1.6 34.9 -88.1 -3.469
00:13 1022 30.18 851 25.13 11.3 52.3 51 1.5 34.6 -88.1 -3.469
00:14 1022 30.18 851 25.13 11.1 52 51 1.4 34.6 -88.1 -3.469
00:15 1022 30.18 851 25.13 11.1 51.9 51 1.2 34.2 -88.1 -3.469
00:16 1022 30.18 851 25.13 11.1 51.9 51 1.3 34.4 -88.1 -3.469
00:17 1022 30.18 851 25.13 11 51.8 52 1.5 34.7 -88.1 -3.469
00:18 1022 30.18 851 25.13 10.9 51.5 52 1.5 34.8 -88.2 -3.472
00:19 1022 30.18 851 25.13 10.7 51.3 54 1.7 35.1 -88.2 -3.472
00:20 1022 30.18 851 25.13 10.6 51 53 1.5 34.6 -88.2 -3.472
00:21 1022 30.18 851 25.13 10.6 51.1 52 1.2 34.1 -88.2 -3.472
00:22 1022 30.18 851 25.13 10.8 51.4 51 1.1 33.9 -88.2 -3.472
00:23 1022 30.18 851 25.13 10.8 51.5 52 1.3 34.4 -88.2 -3.472
00:24 1022 30.18 851 25.13 10.8 51.5 52 1.4 34.6 -88.2 -3.472
00:25 1022 30.18 851 25.13 10.8 51.4 53 1.7 35 -88.2 -3.472
00:26 1022 30.18 851 25.13 10.6 51 54 1.7 35 -88.2 -3.472
00:27 1022 30.18 851 25.13 10.3 50.6 54 1.4 34.5 -88.2 -3.472
00:28 1022 30.18 851 25.13 10.4 50.7 53 1.3 34.3 -88.2 -3.472
00:29 1022 30.18 851 25.13 10.5 50.9 53 1.3 34.3 -88.3 -3.476
00:30 1022 30.18 851 25.13 10.7 51.3 52 1.3 34.3 -88.3 -3.476
00:31 1022 30.18 851 25.13 10.9 51.7 51 1.1 34.1 -88.3 -3.476
00:32 1022 30.18 851 25.13 11.1 51.9 50 1.2 34.2 -88.3 -3.476
00:33 1022 30.18 851 25.13 11 51.9 51 1.3 34.4 -88.3 -3.476
00:34 1022 30.18 851 25.13 11 51.8 50 1.1 34 -88.3 -3.476
00:35 1022 30.18 851 25.13 11.2 52.2 49 1.1 33.9 -88.3 -3.476
00:36 1022 30.18 851 25.13 11.4 52.6 50 1.3 34.3 -88.4 -3.48
00:37 1022 30.18 851 25.13 11.4 52.6 51 1.7 35 -88.4 -3.48
00:38 1022 30.18 851 25.13 11.3 52.3 52 1.8 35.2 -88.4 -3.48
00:39 1022 30.18 851 25.13 11.1 52 52 1.5 34.8 -88.4 -3.48
00:40 1022 30.18 851 25.13 11.1 52 51 1.4 34.6 -88.4 -3.48
00:41 1022 30.18 851 25.13 11.1 52 51 1.5 34.6 -88.4 -3.48
00:42 1022 30.18 851 25.13 11.1 52.1 50 1.3 34.3 -88.4 -3.48
00:43 1022 30.18 852 25.16 11.2 52.2 49 1.1 34 -88.4 -3.48
00:44 1022 30.18 852 25.16 11.4 52.5 49 1.3 34.3 -88.4 -3.48
00:45 1022 30.18 852 25.16 11.5 52.6 49 1.1 34 -88.4 -3.48
00:46 1022 30.18 852 25.16 11.5 52.7 49 1.2 34.2 -88.5 -3.484
00:47 1022 30.18 852 25.16 11.5 52.6 51 1.6 34.9 -88.5 -3.484
00:48 1022 30.18 852 25.16 11.3 52.3 51 1.6 34.9 -88.5 -3.484
00:49 1022 30.18 852 25.16 11.1 52 52 1.7 35 -88.5 -3.484
00:50 1022 30.18 852 25.16 11 51.8 52 1.7 35 -88.5 -3.484
00:51 1022 30.18 851 25.13 10.8 51.5 54 1.9 35.4 -88.5 -3.484
00:52 1022 30.18 851 25.13 10.6 51.1 55 2 35.6 -88.5 -3.484
00:53 1022 30.18 851 25.13 10.4 50.8 55 1.9 35.4 -88.5 -3.484
00:54 1022 30.18 851 25.13 10.3 50.6 56 2 35.6 -88.5 -3.484
00:55 1022 30.18 852 25.16 10.1 50.3 56 1.9 35.4 -88.5 -3.484
00:56 1022 30.18 852 25.16 10.1 50.2 55 1.6 34.8 -88.5 -3.484
00:57 1022 30.18 852 25.16 10.2 50.4 55 1.6 34.8 -88.5 -3.484
00:58 1022 30.18 852 25.16 10.3 50.5 53 1.3 34.3 -88.5 -3.484
00:59 1022 30.18 852 25.16 10.5 50.9 53 1.2 34.2 -88.5 -3.484
01:00 1022 30.18 852 25.16 10.8 51.4 52 1.3 34.4 -88.5 -3.484
01:01 1022 30.18 852 25.16 10.9 51.7 52 1.4 34.5 -88.5 -3.484
01:02 1022 30.18 852 25.16 11 51.8 51 1.3 34.3 -88.6 -3.488
01:03 1022 30.18 852 25.16 11.2 52.1 49 1 33.8 -88.6 -3.488
01:04 1022 30.18 852 25.16 11.4 52.6 49 1.2 34.2 -88.6 -3.488
01:05 1022 30.18 852 25.16 11.6 52.9 49 1.2 34.2 -88.6 -3.488
01:06 1022 30.18 852 25.16 11.8 53.3 48 1.3 34.4 -88.6 -3.488
01:07 1022 30.18 852 25.16 12 53.6 48 1.3 34.4 -88.6 -3.488
01:08 1022 30.18 852 25.16 12.1 53.8 47 1.3 34.3 -88.6 -3.488
01:09 1022 30.18 852 25.16 12.2 54 48 1.5 34.7 -88.6 -3.488
01:10 1022 30.18 852 25.16 12.2 54 47 1.3 34.3 -88.6 -3.488
01:11 1022 30.18 852 25.16 12.4 54.2 45 0.9 33.7 -88.6 -3.488
01:12 1022 30.18 852 25.16 12.5 54.6 47 1.5 34.6 -88.6 -3.488
01:13 1022 30.18 852 25.16 12.6 54.6 46 1.5 34.6 -88.6 -3.488
01:14 1022 30.18 852 25.16 12.6 54.7 47 1.5 34.7 -88.6 -3.488
01:15 1022 30.18 852 25.16 12.5 54.5 48 1.7 35.1 -88.6 -3.488
01:16 1022 30.18 852 25.16 12.5 54.4 47 1.4 34.5 -88.6 -3.488
01:17 1022 30.18 852 25.16 12.6 54.6 47 1.5 34.7 -88.6 -3.488
01:18 1022 30.18 852 25.16 12.6 54.6 46 1.3 34.3 -88.6 -3.488
01:19 1022 30.18 852 25.16 12.6 54.7 46 1.2 34.2 -88.6 -3.488
01:20 1022 30.18 852 25.16 12.5 54.6 46 1.4 34.6 -88.6 -3.488
01:21 1022 30.18 852 25.16 12.4 54.4 48 1.7 35.1 -88.6 -3.488
01:22 1022 30.18 852 25.16 12.3 54.2 47 1.4 34.6 -88.6 -3.488
01:23 1022 30.18 852 25.16 12.3 54.1 47 1.4 34.6 -88.6 -3.488
01:24 1022 30.18 852 25.16 12.3 54.1 48 1.6 34.8 -88.6 -3.488
01:25 1022 30.18 852 25.16 12.2 54 48 1.4 34.6 -88.6 -3.488
01:26 1022 30.18 852 25.16 12.2 53.9 48 1.5 34.8 -88.6 -3.488
01:27 1022 30.18 852 25.16 12.2 53.9 47 1.4 34.5 -88.6 -3.488
01:28 1022 30.18 852 25.16 12.2 53.9 47 1.4 34.5 -88.6 -3.488
01:29 1022 30.18 852 25.16 12.2 53.9 48 1.4 34.6 -88.6 -3.488
01:30 1022 30.18 852 25.16 12.2 54 48 1.7 35 -88.6 -3.488
01:31 1022 30.18 852 25.16 12.2 54 48 1.6 34.9 -88.6 -3.488
01:32 1023 30.21 852 25.16 12.2 53.9 49 1.8 35.3 -88.6 -3.488
01:33 1023 30.21 852 25.16 12.1 53.8 50 2.1 35.7 -88.6 -3.488
01:34 1023 30.21 852 25.16 12.1 53.7 50 1.9 35.5 -88.6 -3.488
01:35 1023 30.21 852 25.16 12.1 53.7 49 1.8 35.3 -88.6 -3.488
01:36 1023 30.21 852 25.16 12.1 53.7 48 1.6 34.9 -88.6 -3.488
01:37 1023 30.21 852 25.16 12.1 53.8 49 1.7 35 -88.6 -3.488
01:38 1023 30.21 852 25.16 12.2 53.9 47 1.4 34.5 -88.6 -3.488
01:39 1023 30.21 852 25.16 12.2 54 48 1.8 35.2 -88.6 -3.488
01:40 1023 30.21 852 25.16 12.3 54.1 48 1.7 35.1 -88.6 -3.488
01:41 1023 30.21 852 25.16 12.3 54.1 48 1.8 35.2 -88.6 -3.488
01:42 1023 30.21 852 25.16 12.3 54.1 49 1.9 35.4 -88.6 -3.488
01:43 1023 30.21 852 25.16 12.3 54.2 49 2.1 35.8 -88.6 -3.488
01:44 1023 30.21 852 25.16 12.3 54.2 49 2.1 35.7 -88.6 -3.488
01:45 1023 30.21 852 25.16 12.4 54.3 49 1.9 35.4 -88.6 -3.488
01:46 1023 30.21 852 25.16 12.5 54.4 48 1.7 35 -88.6 -3.488
01:47 1023 30.21 852 25.16 12.5 54.5 47 1.6 34.9 -88.6 -3.488
01:48 1023 30.21 852 25.16 12.6 54.6 48 1.9 35.4 -88.6 -3.488
01:49 1023 30.21 852 25.16 12.6 54.6 51 2.7 36.9 -88.6 -3.488
01:50 1023 30.21 852 25.16 12.3 54.1 56 3.7 38.7 -88.6 -3.488
01:51 1023 30.21 852 25.16 11.8 53.3 58 3.9 39 -88.6 -3.488
01:52 1023 30.21 852 25.16 11.5 52.6 59 3.9 39 -88.6 -3.488
01:53 1023 30.21 852 25.16 11.2 52.1 61 3.9 39.1 -88.6 -3.488
01:54 1023 30.21 852 25.16 11 51.8 59 3.3 37.9 -88.6 -3.488
01:55 1023 30.21 852 25.16 11 51.9 56 2.6 36.7 -88.6 -3.488
01:56 1023 30.21 852 25.16 11.2 52.1 57 2.9 37.2 -88.6 -3.488
01:57 1023 30.21 852 25.16 11.4 52.4 59 3.7 38.6 -88.6 -3.488
01:58 1023 30.21 852 25.16 11.3 52.3 58 3.4 38.1 -88.6 -3.488
01:59 1023 30.21 852 25.16 11.3 52.3 60 3.8 38.8 -88.6 -3.488
02:00 1023 30.21 852 25.16 11.2 52.2 61 4 39.2 -88.6 -3.488
02:01 1023 30.21 852 25.16 11.1 52 62 4.2 39.5 -88.6 -3.488
02:02 1023 30.21 852 25.16 11 51.7 62 4.1 39.4 -88.6 -3.488
02:03 1023 30.21 852 25.16 10.8 51.4 63 4 39.3 -88.6 -3.488
02:04 1023 30.21 852 25.16 10.8 51.4 60 3.5 38.3 -88.6 -3.488
02:05 1023 30.21 852 25.16 11 51.8 59 3.4 38.1 -88.6 -3.488
02:06 1023 30.21 852 25.16 11.1 51.9 60 3.6 38.5 -88.6 -3.488
02:07 1023 30.21 852 25.16 11 51.9 57 2.8 37.1 -88.6 -3.488
02:08 1023 30.21 852 25.16 11.3 52.3 54 2.4 36.3 -88.6 -3.488
02:09 1023 30.21 852 25.16 11.6 52.9 51 1.9 35.5 -88.6 -3.488
02:10 1023 30.21 852 25.16 12 53.6 50 2 35.6 -88.6 -3.488
02:11 1023 30.21 852 25.16 12.2 54 50 2.3 36.1 -88.6 -3.488
02:12 1023 30.21 852 25.16 12.3 54.2 49 2 35.6 -88.6 -3.488
02:13 1023 30.21 852 25.16 12.5 54.4 49 2.2 36 -88.6 -3.488
02:14 1023 30.21 852 25.16 12.5 54.6 49 2.1 35.8 -88.6 -3.488
02:15 1023 30.21 852 25.16 12.6 54.6 48 2 35.7 -88.6 -3.488
02:16 1023 30.21 852 25.16 12.7 54.9 48 2.1 35.7 -88.6 -3.488
02:17 1023 30.21 852 25.16 12.8 55.1 48 2.3 36.1 -88.7 -3.492
02:18 1023 30.21 852 25.16 12.8 55.1 48 2.1 35.8 -88.7 -3.492
02:19 1023 30.21 852 25.16 12.9 55.2 47 1.9 35.4 -88.7 -3.492
02:20 1023 30.21 852 25.16 13 55.5 47 1.9 35.4 -88.7 -3.492
02:21 1023 30.21 852 25.16 13.2 55.7 47 2.1 35.8 -88.7 -3.492
02:22 1023 30.21 852 25.16 13.2 55.7 47 2.1 35.8 -88.7 -3.492
02:23 1023 30.21 852 25.16 13.2 55.7 47 2.1 35.8 -88.7 -3.492
02:24 1023 30.21 852 25.16 13.1 55.6 47 2 35.6 -88.7 -3.492
02:25 1023 30.21 852 25.16 13.1 55.6 47 2.2 36 -88.7 -3.492
02:26 1023 30.21 852 25.16 13.2 55.7 48 2.3 36.2 -88.7 -3.492
02:27 1023 30.21 852 25.16 13.1 55.6 47 2.3 36.1 -88.7 -3.492
02:28 1023 30.21 853 25.19 13 55.5 47 2 35.5 -88.7 -3.492
02:29 1023 30.21 853 25.19 13.1 55.5 47 2 35.5 -88.7 -3.492
02:30 1023 30.21 853 25.19 13.1 55.5 45 1.6 34.9 -88.7 -3.492
02:31 1023 30.21 853 25.19 13.1 55.6 45 1.5 34.6 -88.7 -3.492
02:32 1023 30.21 853 25.19 13.3 55.9 45 1.5 34.7 -88.7 -3.492
02:33 1023 30.21 853 25.19 13.3 55.9 44 1.4 34.5 -88.7 -3.492
02:34 1023 30.21 853 25.19 13.4 56.1 44 1.3 34.4 -88.7 -3.492
02:35 1024 30.24 853 25.19 13.4 56.2 44 1.5 34.7 -88.7 -3.492
02:36 1024 30.24 853 25.19 13.5 56.2 43 1.3 34.4 -88.7 -3.492
02:37 1024 30.24 853 25.19 13.5 56.3 43 1.1 34 -88.7 -3.492
02:38 1023 30.21 853 25.19 13.6 56.5 43 1.3 34.4 -88.7 -3.492
02:39 1024 30.24 853 25.19 13.6 56.5 44 1.7 35.1 -88.7 -3.492
02:40 1024 30.24 853 25.19 13.5 56.2 46 2.2 36 -88.7 -3.492
02:41 1024 30.24 853 25.19 13.1 55.6 48 2.5 36.6 -88.7 -3.492
02:42 1024 30.24 853 25.19 12.8 55 50 2.7 36.8 -88.7 -3.492
02:43 1024 30.24 853 25.19 12.5 54.5 51 2.8 37.1 -88.7 -3.492
02:44 1024 30.24 853 25.19 12.2 53.9 52 2.6 36.7 -88.7 -3.492
02:45 1024 30.24 853 25.19 12 53.6 52 2.6 36.7 -88.7 -3.492
02:46 1024 30.24 853 25.19 11.8 53.3 53 2.7 36.8 -88.7 -3.492
02:47 1024 30.24 853 25.19 11.7 53 55 2.9 37.3 -88.7 -3.492
02:48 1024 30.24 853 25.19 11.4 52.5 56 2.9 37.3 -88.7 -3.492
02:49 1024 30.24 853 25.19 11.2 52.1 56 2.7 36.8 -88.7 -3.492
02:50 1024 30.24 853 25.19 11.1 52 56 2.7 36.9 -88.7 -3.492
02:51 1024 30.24 853 25.19 11 51.9 56 2.6 36.7 -88.7 -3.492
02:52 1024 30.24 853 25.19 11 51.9 56 2.6 36.7 -88.7 -3.492
02:53 1024 30.24 853 25.19 11 51.8 55 2.5 36.5 -88.7 -3.492
02:54 1024 30.24 853 25.19 11 51.9 55 2.5 36.5 -88.7 -3.492
02:55 1024 30.24 853 25.19 11 51.9 55 2.4 36.4 -88.7 -3.492
02:56 1024 30.24 853 25.19 11.1 52 55 2.4 36.3 -88.7 -3.492
02:57 1024 30.24 853 25.19 11.2 52.1 55 2.4 36.3 -88.7 -3.492
02:58 1024 30.24 853 25.19 11.2 52.2 54 2.4 36.3 -88.7 -3.492
02:59 1024 30.24 853 25.19 11.3 52.3 53 2.2 35.9 -88.7 -3.492
03:00 1024 30.24 853 25.19 11.4 52.5 52 1.9 35.4 -88.7 -3.492
03:01 1024 30.24 853 25.19 11.6 52.8 51 1.9 35.4 -88.8 -3.496
03:02 1024 30.24 853 25.19 11.8 53.2 51 2 35.6 -88.8 -3.496
03:03 1024 30.24 853 25.19 11.9 53.4 51 2.1 35.8 -88.8 -3.496
03:04 1024 30.24 853 25.19 11.9 53.4 51 2.1 35.8 -88.8 -3.496
03:05 1024 30.24 853 25.19 11.9 53.4 51 2.1 35.7 -88.8 -3.496
03:06 1024 30.24 853 25.19 11.9 53.4 51 2.1 35.7 -88.8 -3.496
03:07 1024 30.24 853 25.19 11.9 53.3 52 2.2 36 -88.8 -3.496
03:08 1024 30.24 853 25.19 11.8 53.2 51 2.2 35.9 -88.8 -3.496
03:09 1024 30.24 853 25.19 11.8 53.2 51 2 35.7 -88.8 -3.496
03:10 1024 30.24 853 25.19 11.8 53.3 51 2 35.7 -88.8 -3.496
03:11 1024 30.24 853 25.19 11.9 53.3 51 2.1 35.7 -88.8 -3.496
03:12 1024 30.24 853 25.19 11.8 53.3 51 2 35.5 -88.8 -3.496
03:13 1024 30.24 853 25.19 11.7 53.1 51 1.9 35.4 -88.8 -3.496
03:14 1024 30.24 853 25.19 11.7 53 51 1.9 35.4 -88.8 -3.496
03:15 1024 30.24 853 25.19 11.6 53 51 1.9 35.5 -88.8 -3.496
03:16 1024 30.24 853 25.19 11.6 52.8 52 2.1 35.8 -88.8 -3.496
03:17 1024 30.24 853 25.19 11.4 52.6 53 2.2 35.9 -88.9 -3.5
03:18 1024 30.24 853 25.19 11.3 52.4 53 2.1 35.8 -88.9 -3.5
03:19 1024 30.24 854 25.22 11.2 52.2 53 2.1 35.7 -88.9 -3.5
03:20 1024 30.24 854 25.22 11.2 52.1 53 2.1 35.7 -88.9 -3.5
03:21 1024 30.24 854 25.22 11.1 52.1 54 2.1 35.8 -88.9 -3.5
03:22 1024 30.24 854 25.22 11.1 51.9 54 2.1 35.9 -88.9 -3.5
03:23 1024 30.24 854 25.22 11 51.8 54 2.2 35.9 -88.9 -3.5
03:24 1024 30.24 854 25.22 10.9 51.7 55 2.2 36 -88.9 -3.5
03:25 1024 30.24 854 25.22 10.9 51.5 55 2.3 36.1 -88.9 -3.5
03:26 1024 30.24 854 25.22 10.8 51.5 56 2.5 36.5 -88.9 -3.5
03:27 1024 30.24 854 25.22 10.7 51.3 57 2.7 36.8 -88.9 -3.5
03:28 1024 30.24 854 25.22 10.7 51.2 58 2.9 37.2 -88.9 -3.5
03:29 1024 30.24 854 25.22 10.7 51.2 59 2.9 37.3 -88.9 -3.5
03:30 1024 30.24 854 25.22 10.8 51.4 59 3.2 37.7 -88.9 -3.5
03:31 1024 30.24 854 25.22 10.7 51.2 60 3.3 38 -88.9 -3.5
03:32 1024 30.24 854 25.22 10.7 51.2 61 3.5 38.3 -89 -3.504
03:33 1024 30.24 854 25.22 10.6 51.2 62 3.6 38.5 -89 -3.504
03:34 1024 30.24 854 25.22 10.6 51.1 62 3.8 38.8 -89 -3.504
03:35 1024 30.24 854 25.22 10.6 51.1 63 3.9 38.9 -89 -3.504
03:36 1024 30.24 854 25.22 10.7 51.2 63 3.9 39.1 -89 -3.504
03:37 1024 30.24 854 25.22 10.8 51.4 63 4 39.1 -89 -3.504
03:38 1024 30.24 854 25.22 10.9 51.6 63 4.1 39.3 -89 -3.504
03:39 1025 30.27 854 25.22 10.9 51.6 63 4.1 39.4 -89 -3.504
03:40 1025 30.27 854 25.22 10.8 51.4 62 3.8 38.9 -89 -3.504
03:41 1025 30.27 854 25.22 10.6 51.2 62 3.6 38.5 -89 -3.504
03:42 1025 30.27 854 25.22 10.5 50.8 61 3.3 38 -89 -3.504
03:43 1025 30.27 854 25.22 10.4 50.7 61 3.2 37.7 -89 -3.504
03:44 1025 30.27 854 25.22 10.3 50.6 61 3.1 37.6 -89 -3.504
03:45 1025 30.27 854 25.22 10.2 50.4 60 3 37.3 -89 -3.504
03:46 1025 30.27 854 25.22 10.2 50.4 60 2.9 37.2 -89.1 -3.508
03:47 1025 30.27 854 25.22 10.2 50.3 60 2.9 37.2 -89.1 -3.508
03:48 1025 30.27 854 25.22 10.1 50.2 61 3 37.3 -89.1 -3.508
03:49 1025 30.27 854 25.22 10 50.1 62 3 37.5 -89.1 -3.508
03:50 1025 30.27 854 25.22 9.9 49.7 63 3.1 37.7 -89.1 -3.508
03:51 1025 30.27 854 25.22 9.7 49.4 64 3.2 37.8 -89.1 -3.508
03:52 1025 30.27 854 25.22 9.6 49.2 65 3.3 38 -89.1 -3.508
03:53 1025 30.27 854 25.22 9.4 48.9 66 3.3 38 -89.1 -3.508
03:54 1025 30.27 854 25.22 9.3 48.7 66 3.4 38.1 -89.1 -3.508
03:55 1025 30.27 854 25.22 9.2 48.5 67 3.4 38.2 -89.1 -3.508
03:56 1025 30.27 854 25.22 9.2 48.5 68 3.5 38.3 -89.1 -3.508
03:57 1025 30.27 854 25.22 9.2 48.5 68 3.6 38.5 -89.1 -3.508
03:58 1025 30.27 854 25.22 9.1 48.4 69 3.8 38.8 -89.1 -3.508
03:59 1025 30.27 854 25.22 9.1 48.4 70 3.9 39.1 -89.1 -3.508
04:00 1025 30.27 854 25.22 9.3 48.7 70 4 39.3 -89.1 -3.508
04:01 1025 30.27 854 25.22 9.5 49 70 4.3 39.7 -89.1 -3.508
04:02 1025 30.27 854 25.22 9.7 49.5 69 4.4 39.9 -89.1 -3.508
04:03 1025 30.27 854 25.22 10 49.9 69 4.5 40.1 -89.1 -3.508
04:04 1025 30.27 854 25.22 10.2 50.3 68 4.6 40.2 -89.1 -3.508
04:05 1025 30.27 854 25.22 10.4 50.6 68 4.7 40.4 -89.1 -3.508
04:06 1025 30.27 854 25.22 10.5 50.8 67 4.7 40.5 -89.1 -3.508
04:07 1025 30.27 854 25.22 10.6 51 67 4.7 40.5 -89.1 -3.508
04:08 1025 30.27 854 25.22 10.7 51.3 67 4.8 40.6 -89.1 -3.508
04:09 1025 30.27 854 25.22 10.9 51.5 66 4.9 40.7 -89.1 -3.508
04:10 1025 30.27 854 25.22 10.9 51.6 66 4.9 40.8 -89.1 -3.508
04:11 1025 30.27 854 25.22 10.9 51.7 66 4.9 40.9 -89.1 -3.508
04:12 1025 30.27 854 25.22 10.9 51.7 66 4.9 40.9 -89.1 -3.508
04:13 1025 30.27 854 25.22 11 51.7 67 5 41.1 -89.1 -3.508
04:14 1025 30.27 854 25.22 10.9 51.5 67 5.1 41.1 -89.1 -3.508
04:15 1025 30.27 854 25.22 10.8 51.4 68 5.1 41.2 -89.1 -3.508
04:16 1025 30.27 854 25.22 10.7 51.2 68 5.1 41.1 -89.1 -3.508
04:17 1025 30.27 854 25.22 10.7 51.2 68 5.1 41.2 -89.1 -3.508
04:18 1025 30.27 854 25.22 10.6 51.1 69 5.1 41.2 -89.1 -3.508
04:19 1025 30.27 854 25.22 10.5 50.9 69 5.2 41.3 -89.1 -3.508
04:20 1025 30.27 854 25.22 10.4 50.8 70 5.2 41.4 -89.1 -3.508
04:21 1025 30.27 854 25.22 10.4 50.6 70 5.2 41.4 -89.1 -3.508
04:22 1025 30.27 854 25.22 10.3 50.6 71 5.3 41.5 -89.1 -3.508
04:23 1025 30.27 854 25.22 10.2 50.4 71 5.2 41.4 -89.1 -3.508
04:24 1025 30.27 854 25.22 10.1 50.1 72 5.2 41.4 -89.1 -3.508
04:25 1025 30.27 854 25.22 9.9 49.7 72 5.1 41.2 -89.1 -3.508
04:26 1025 30.27 854 25.22 9.6 49.3 73 5 41 -89.1 -3.508
04:27 1025 30.27 854 25.22 9.3 48.8 74 4.9 40.8 -89.1 -3.508
04:28 1025 30.27 854 25.22 9 48.2 75 4.8 40.7 -89.1 -3.508
04:29 1025 30.27 854 25.22 8.8 47.9 75 4.7 40.4 -89.1 -3.508
04:30 1025 30.27 854 25.22 8.7 47.6 76 4.7 40.4 -89.1 -3.508
04:31 1025 30.27 854 25.22 8.6 47.4 76 4.6 40.2 -89.1 -3.508
04:32 1025 30.27 854 25.22 8.6 47.5 76 4.6 40.2 -89.1 -3.508
04:33 1025 30.27 854 25.22 8.7 47.7 75 4.5 40.2 -89.1 -3.508
04:34 1025 30.27 854 25.22 8.9 48 74 4.5 40.2 -89.1 -3.508
04:35 1025 30.27 854 25.22 9.2 48.5 73 4.6 40.2 -89.1 -3.508
04:36 1025 30.27 854 25.22 9.3 48.7 73 4.7 40.4 -89.1 -3.508
04:37 1025 30.27 854 25.22 9.4 48.8 73 4.7 40.4 -89.1 -3.508
04:38 1025 30.27 854 25.22 9.4 48.8 73 4.7 40.5 -89.1 -3.508
04:39 1025 30.27 854 25.22 9.4 48.8 72 4.7 40.4 -89.1 -3.508
04:40 1025 30.27 854 25.22 9.4 48.8 72 4.6 40.4 -89.1 -3.508
04:41 1025 30.27 854 25.22 9.3 48.7 72 4.5 40.2 -89.1 -3.508
04:42 1025 30.27 854 25.22 8.9 48.1 73 4.4 39.8 -89.1 -3.508
04:43 1025 30.27 854 25.22 8.5 47.4 74 4.2 39.6 -89.1 -3.508
04:44 1025 30.27 854 25.22 8.3 46.9 76 4.2 39.6 -89.1 -3.508
04:45 1025 30.27 854 25.22 8.1 46.6 77 4.3 39.7 -89.1 -3.508
04:46 1025 30.27 855 25.25 8.1 46.5 78 4.4 39.9 -89.1 -3.508
04:47 1025 30.27 854 25.22 8.1 46.6 78 4.5 40.1 -89.1 -3.508
04:48 1025 30.27 854 25.22 8.2 46.8 78 4.6 40.2 -89.1 -3.508
04:49 1025 30.27 855 25.25 8.4 47 77 4.6 40.3 -89.1 -3.508
04:50 1025 30.27 855 25.25 8.5 47.3 77 4.7 40.4 -89.1 -3.508
04:51 1025 30.27 855 25.25 8.5 47.4 76 4.6 40.4 -89.1 -3.508
04:52 1025 30.27 855 25.25 8.6 47.4 76 4.7 40.4 -89.1 -3.508
04:53 1025 30.27 855 25.25 8.7 47.6 76 4.7 40.5 -89.1 -3.508
04:54 1025 30.27 855 25.25 8.7 47.6 76 4.8 40.6 -89.1 -3.508
04:55 1025 30.27 855 25.25 8.7 47.6 76 4.8 40.6 -89.1 -3.508
04:56 1025 30.27 855 25.25 8.7 47.7 76 4.8 40.6 -89.1 -3.508
04:57 1025 30.27 855 25.25 8.7 47.7 76 4.8 40.6 -89.1 -3.508
04:58 1025 30.27 855 25.25 8.7 47.7 76 4.8 40.6 -89.1 -3.508
04:59 1025 30.27 855 25.25 8.7 47.7 76 4.8 40.6 -89.1 -3.508
05:00 1025 30.27 855 25.25 8.8 47.8 76 4.7 40.5 -89.1 -3.508
05:01 1025 30.27 855 25.25 8.8 47.8 76 4.7 40.5 -89.1 -3.508
05:02 1025 30.27 855 25.25 8.7 47.7 75 4.5 40.2 -89.1 -3.508
05:03 1025 30.27 855 25.25 8.5 47.2 76 4.5 40.1 -89.1 -3.508
05:04 1025 30.27 855 25.25 8.3 46.9 76 4.3 39.8 -89.1 -3.508
05:05 1025 30.27 855 25.25 8.1 46.7 76 4.1 39.4 -89.1 -3.508
05:06 1026 30.3 855 25.25 8 46.3 77 4.1 39.4 -89.1 -3.508
05:07 1025 30.27 855 25.25 7.8 46 76 3.9 39 -89.2 -3.512
05:08 1025 30.27 855 25.25 7.5 45.5 78 3.9 39 -89.2 -3.512
05:09 1026 30.3 855 25.25 7.4 45.3 80 4.2 39.5 -89.2 -3.512
05:10 1026 30.3 855 25.25 7.4 45.3 79 4.1 39.3 -89.1 -3.508
05:11 1026 30.3 855 25.25 7.4 45.2 81 4.3 39.7 -89.1 -3.508
05:12 1026 30.3 855 25.25 7.5 45.4 81 4.4 40 -89.1 -3.508
05:13 1026 30.3 855 25.25 7.6 45.7 80 4.4 39.9 -89.1 -3.508
05:14 1026 30.3 855 25.25 7.6 45.7 78 4.1 39.3 -89.1 -3.508
05:15 1026 30.3 855 25.25 7.6 45.6 80 4.3 39.8 -89.1 -3.508
05:16 1026 30.3 855 25.25 7.7 45.8 80 4.5 40.2 -89 -3.504
05:17 1026 30.3 855 25.25 7.8 46 78 4.3 39.7 -89 -3.504
05:18 1026 30.3 855 25.25 7.8 46 77 4.1 39.3 -89 -3.504
05:19 1026 30.3 855 25.25 7.7 45.8 77 3.9 38.9 -89 -3.504
05:20 1026 30.3 855 25.25 7.6 45.7 77 3.8 38.8 -89 -3.504
05:21 1026 30.3 855 25.25 7.5 45.6 76 3.6 38.6 -89 -3.504
05:22 1026 30.3 855 25.25 7.6 45.6 76 3.6 38.5 -89 -3.504
05:23 1026 30.3 855 25.25 7.5 45.5 76 3.5 38.4 -89 -3.504
05:24 1026 30.3 855 25.25 7.4 45.4 76 3.4 38.1 -89 -3.504
05:25 1026 30.3 855 25.25 7.3 45.1 75 3.2 37.7 -89 -3.504
05:26 1026 30.3 855 25.25 7.1 44.7 76 3.1 37.6 -89.1 -3.508
05:27 1026 30.3 855 25.25 6.7 44.1 77 3 37.4 -89.1 -3.508
05:28 1026 30.3 855 25.25 6.4 43.6 78 2.9 37.1 -89.1 -3.508
05:29 1026 30.3 855 25.25 6.2 43.2 79 2.8 37.1 -89.1 -3.508
05:30 1026 30.3 855 25.25 6.1 43 79 2.8 37.1 -89.1 -3.508
05:31 1026 30.3 855 25.25 6.1 42.9 80 2.8 37.1 -89.1 -3.508
05:32 1026 30.3 855 25.25 6.1 42.9 80 2.8 37.1 -89.1 -3.508
05:33 1026 30.3 855 25.25 6.1 43 79 2.8 37 -89.1 -3.508
05:34 1026 30.3 855 25.25 6.2 43.2 79 2.8 37 -89.1 -3.508
05:35 1026 30.3 855 25.25 6.2 43.2 79 2.8 37 -89.1 -3.508
05:36 1026 30.3 855 25.25 6.3 43.3 79 2.9 37.1 -89.1 -3.508
05:37 1026 30.3 855 25.25 6.4 43.5 78 2.8 37 -89.1 -3.508
05:38 1026 30.3 855 25.25 6.4 43.6 77 2.8 37 -89.1 -3.508
05:39 1026 30.3 855 25.25 6.4 43.6 76 2.6 36.7 -89.1 -3.508
05:40 1026 30.3 855 25.25 6.4 43.5 76 2.5 36.4 -89.2 -3.512
05:41 1026 30.3 855 25.25 6.3 43.4 76 2.5 36.4 -89.2 -3.512
05:42 1026 30.3 855 25.25 6.2 43.2 77 2.4 36.4 -89.2 -3.512
05:43 1026 30.3 855 25.25 6.2 43.1 77 2.5 36.5 -89.2 -3.512
05:44 1026 30.3 855 25.25 6.2 43.1 78 2.6 36.7 -89.2 -3.512
05:45 1026 30.3 855 25.25 6.3 43.3 78 2.7 36.8 -89.2 -3.512
05:46 1026 30.3 855 25.25 6.4 43.5 77 2.7 36.9 -89.3 -3.516
05:47 1026 30.3 855 25.25 6.5 43.7 77 2.7 36.9 -89.3 -3.516
05:48 1026 30.3 855 25.25 6.4 43.6 77 2.7 36.9 -89.3 -3.516
05:49 1026 30.3 855 25.25 6.4 43.5 78 2.8 37.1 -89.3 -3.516
05:50 1026 30.3 855 25.25 6.3 43.4 78 2.8 37 -89.3 -3.516
05:51 1026 30.3 855 25.25 6.3 43.4 78 2.7 36.9 -89.3 -3.516
05:52 1026 30.3 855 25.25 6.2 43.2 78 2.7 36.8 -89.3 -3.516
05:53 1026 30.3 855 25.25 6.2 43.1 79 2.7 36.9 -89.3 -3.516
05:54 1026 30.3 855 25.25 6.2 43.2 78 2.7 36.8 -89.3 -3.516
05:55 1026 30.3 855 25.25 6.1 42.9 79 2.7 36.8 -89.3 -3.516
05:56 1026 30.3 855 25.25 6 42.7 79 2.5 36.5 -89.3 -3.516
05:57 1026 30.3 855 25.25 5.7 42.3 79 2.5 36.4 -89.3 -3.516
05:58 1026 30.3 855 25.25 5.6 42 80 2.5 36.4 -89.3 -3.516
05:59 1026 30.3 855 25.25 5.5 41.9 80 2.3 36.2 -89.3 -3.516
06:00 1026 30.3 855 25.25 5.4 41.7 81 2.3 36.2 -89.3 -3.516
06:01 1026 30.3 855 25.25 5.4 41.7 80 2.3 36.1 -89.3 -3.516
06:02 1026 30.3 855 25.25 5.3 41.5 81 2.3 36.1 -89.3 -3.516
06:03 1026 30.3 855 25.25 5.2 41.4 82 2.4 36.3 -89.3 -3.516
06:04 1026 30.3 855 25.25 5.3 41.5 82 2.4 36.4 -89.3 -3.516
06:05 1026 30.3 855 25.25 5.2 41.4 82 2.4 36.4 -89.3 -3.516
06:06 1026 30.3 855 25.25 5.3 41.5 82 2.5 36.5 -89.3 -3.516
06:07 1026 30.3 855 25.25 5.3 41.5 82 2.4 36.4 -89.2 -3.512
06:08 1026 30.3 855 25.25 5.3 41.5 83 2.6 36.6 -89.2 -3.512
06:09 1026 30.3 855 25.25 5.3 41.5 82 2.5 36.5 -89.2 -3.512
06:10 1026 30.3 855 25.25 5.3 41.5 84 2.7 36.9 -89.2 -3.512
06:11 1026 30.3 855 25.25 5.3 41.5 85 2.9 37.2 -89.2 -3.512
06:12 1026 30.3 855 25.25 5.5 41.9 85 3.2 37.7 -89.1 -3.508
06:13 1026 30.3 855 25.25 5.7 42.3 83 3 37.5 -89.1 -3.508
06:14 1026 30.3 855 25.25 5.8 42.4 82 3 37.4 -89 -3.504
06:15 1026 30.3 855 25.25 5.8 42.4 82 3 37.3 -89 -3.504
06:16 1026 30.3 855 25.25 5.7 42.3 83 3 37.5 -89 -3.504
06:17 1026 30.3 855 25.25 5.8 42.4 85 3.5 38.3 -89 -3.504
06:18 1026 30.3 855 25.25 6 42.7 82 3.2 37.7 -88.9 -3.5
06:19 1026 30.3 855 25.25 6 42.8 83 3.3 38 -88.9 -3.5
06:20 1026 30.3 855 25.25 6 42.9 82 3.3 37.9 -88.9 -3.5
06:21 1026 30.3 855 25.25 6 42.8 81 2.9 37.2 -88.8 -3.496
06:22 1026 30.3 855 25.25 5.8 42.4 82 2.9 37.3 -88.9 -3.5
06:23 1026 30.3 855 25.25 5.7 42.2 83 3 37.3 -88.9 -3.5
06:24 1026 30.3 855 25.25 5.6 42.1 83 2.9 37.2 -88.9 -3.5
06:25 1026 30.3 855 25.25 5.5 42 81 2.5 36.5 -88.9 -3.5
06:26 1026 30.3 855 25.25 5.3 41.5 81 2.3 36.1 -88.9 -3.5
06:27 1026 30.3 855 25.25 5 41.1 83 2.4 36.2 -88.9 -3.5
06:28 1026 30.3 855 25.25 4.8 40.6 83 2.1 35.8 -88.9 -3.5
06:29 1026 30.3 855 25.25 4.5 40 84 2 35.6 -88.9 -3.5
06:30 1026 30.3 855 25.25 4.3 39.7 85 2 35.6 -88.9 -3.5
06:31 1026 30.3 855 25.25 4.1 39.3 86 2 35.6 -88.9 -3.5
06:32 1026 30.3 855 25.25 4.1 39.4 86 2 35.6 -88.9 -3.5
06:33 1026 30.3 855 25.25 4.2 39.5 87 2.2 35.9 -88.8 -3.496
06:34 1026 30.3 855 25.25 4.3 39.7 86 2.2 35.9 -88.8 -3.496
06:35 1026 30.3 855 25.25 4.5 40 85 2.1 35.8 -88.8 -3.496
06:36 1026 30.3 855 25.25 4.5 40.1 84 2 35.6 -88.8 -3.496
06:37 1026 30.3 855 25.25 4.6 40.2 83 2 35.6 -88.8 -3.496
06:38 1026 30.3 855 25.25 4.6 40.3 83 1.9 35.5 -88.8 -3.496
06:39 1026 30.3 855 25.25 4.7 40.4 82 1.9 35.4 -88.8 -3.496
06:40 1026 30.3 855 25.25 4.7 40.4 82 1.9 35.4 -88.8 -3.496
06:41 1026 30.3 855 25.25 4.7 40.4 83 2 35.6 -88.8 -3.496
06:42 1026 30.3 855 25.25 4.7 40.5 83 2 35.6 -88.8 -3.496
06:43 1026 30.3 855 25.25 4.7 40.5 83 2 35.6 -88.8 -3.496
06:44 1026 30.3 855 25.25 4.7 40.5 82 1.9 35.4 -88.8 -3.496
06:45 1026 30.3 855 25.25 4.6 40.4 82 1.9 35.3 -88.9 -3.5
06:46 1026 30.3 855 25.25 4.6 40.2 83 1.9 35.5 -88.9 -3.5
06:47 1026 30.3 855 25.25 4.5 40.1 83 1.9 35.5 -88.9 -3.5
06:48 1026 30.3 855 25.25 4.6 40.2 84 2 35.6 -88.9 -3.5
06:49 1026 30.3 855 25.25 4.7 40.4 83 2.1 35.8 -88.9 -3.5
06:50 1026 30.3 855 25.25 4.9 40.8 82 2.1 35.8 -88.9 -3.5
06:51 1026 30.3 855 25.25 5.1 41.1 81 2.1 35.8 -88.9 -3.5
06:52 1026 30.3 855 25.25 5.2 41.3 81 2.2 35.9 -88.9 -3.5
06:53 1026 30.3 855 25.25 5.2 41.4 80 2.1 35.8 -88.9 -3.5
06:54 1026 30.3 855 25.25 5.3 41.5 79 1.9 35.5 -88.9 -3.5
06:55 1026 30.3 855 25.25 5.3 41.5 80 2 35.6 -89 -3.504
06:56 1026 30.3 855 25.25 5.3 41.5 79 1.9 35.4 -89 -3.504
06:57 1026 30.3 855 25.25 5.2 41.4 78 1.8 35.2 -89 -3.504
06:58 1026 30.3 855 25.25 5.1 41.1 78 1.6 34.9 -89 -3.504
06:59 1026 30.3 855 25.25 4.8 40.7 79 1.6 34.8 -89.1 -3.508
07:00 1026 30.3 855 25.25 4.7 40.4 81 1.7 35 -89.1 -3.508
07:01 1026 30.3 855 25.25 4.6 40.2 82 1.7 35.1 -89.1 -3.508
07:02 1026 30.3 855 25.25 4.6 40.3 82 1.8 35.2 -89.1 -3.508
07:03 1026 30.3 855 25.25 4.6 40.3 82 1.8 35.2 -89.2 -3.512
07:04 1026 30.3 855 25.25 4.6 40.2 82 1.7 35 -89.2 -3.512
07:05 1026 30.3 855 25.25 4.6 40.3 81 1.7 35 -89.2 -3.512
07:06 1026 30.3 855 25.25 4.6 40.4 81 1.7 35.1 -89.2 -3.512
07:07 1026 30.3 855 25.25 4.7 40.4 81 1.7 35 -89.2 -3.512
07:08 1026 30.3 855 25.25 4.7 40.4 81 1.6 34.9 -89.2 -3.512
07:09 1026 30.3 855 25.25 4.7 40.4 81 1.6 34.9 -89.2 -3.512
07:10 1026 30.3 855 25.25 4.7 40.5 80 1.6 34.9 -89.3 -3.516
07:11 1026 30.3 855 25.25 4.6 40.3 80 1.6 34.8 -89.3 -3.516
07:12 1026 30.3 855 25.25 4.6 40.3 81 1.6 34.8 -89.3 -3.516
07:13 1026 30.3 855 25.25 4.6 40.4 81 1.6 34.9 -89.4 -3.52
07:14 1026 30.3 855 25.25 4.7 40.4 81 1.6 34.9 -89.4 -3.52
07:15 1026 30.3 855 25.25 4.7 40.5 80 1.6 34.8 -89.4 -3.52
07:16 1026 30.3 855 25.25 4.6 40.4 80 1.5 34.7 -89.4 -3.52
07:17 1026 30.3 855 25.25 4.5 40.1 81 1.5 34.7 -89.4 -3.52
07:18 1026 30.3 855 25.25 4.4 39.9 81 1.4 34.6 -89.4 -3.52
07:19 1026 30.3 855 25.25 4.3 39.7 82 1.5 34.6 -89.5 -3.524
07:20 1026 30.3 855 25.25 4.1 39.5 82 1.4 34.5 -89.5 -3.524
07:21 1026 30.3 855 25.25 4.1 39.4 83 1.4 34.5 -89.5 -3.524
07:22 1026 30.3 855 25.25 4 39.3 83 1.4 34.5 -89.5 -3.524
07:23 1026 30.3 855 25.25 4 39.2 83 1.4 34.5 -89.5 -3.524
07:24 1026 30.3 855 25.25 4 39.3 83 1.5 34.6 -89.5 -3.524
07:25 1026 30.3 855 25.25 4 39.3 83 1.5 34.7 -89.6 -3.528
07:26 1026 30.3 855 25.25 4.1 39.3 83 1.5 34.7 -89.6 -3.528
07:27 1026 30.3 855 25.25 4.1 39.3 83 1.5 34.7 -89.6 -3.528
07:28 1026 30.3 855 25.25 4.1 39.5 83 1.6 34.8 -89.6 -3.528
07:29 1026 30.3 855 25.25 4.2 39.5 84 1.7 35 -89.6 -3.528
07:30 1026 30.3 855 25.25 4.2 39.6 84 1.7 35 -89.6 -3.528
07:31 1026 30.3 855 25.25 4.2 39.6 84 1.7 35 -89.6 -3.528
07:32 1026 30.3 856 25.28 4.4 39.8 83 1.7 35.1 -89.6 -3.528
07:33 1026 30.3 856 25.28 4.5 40 83 1.8 35.2 -89.6 -3.528
07:34 1026 30.3 855 25.25 4.5 40.1 82 1.8 35.2 -89.6 -3.528
07:35 1026 30.3 855 25.25 4.7 40.4 81 1.8 35.2 -89.6 -3.528
07:36 1026 30.3 856 25.28 4.8 40.7 81 1.9 35.4 -89.6 -3.528
07:37 1026 30.3 856 25.28 4.9 40.9 81 2 35.6 -89.7 -3.531
07:38 1026 30.3 856 25.28 5 41 81 2.1 35.7 -89.7 -3.531
07:39 1026 30.3 856 25.28 5.1 41.2 81 2.1 35.8 -89.7 -3.531
07:40 1026 30.3 856 25.28 5.2 41.4 81 2.2 35.9 -89.7 -3.531
07:41 1026 30.3 856 25.28 5.2 41.4 81 2.2 36 -89.7 -3.531
07:42 1026 30.3 856 25.28 5.3 41.5 80 2.2 35.9 -89.8 -3.535
07:43 1026 30.3 856 25.28 5.4 41.7 80 2.2 36 -89.8 -3.535
07:44 1026 30.3 856 25.28 5.5 41.9 79 2.2 36 -89.8 -3.535
07:45 1026 30.3 856 25.28 5.6 42.1 79 2.3 36.2 -89.8 -3.535
07:46 1026 30.3 856 25.28 5.7 42.2 80 2.4 36.4 -89.8 -3.535
07:47 1026 30.3 856 25.28 5.7 42.3 79 2.4 36.3 -89.8 -3.535
07:48 1026 30.3 856 25.28 5.7 42.3 80 2.6 36.6 -89.8 -3.535
07:49 1026 30.3 856 25.28 5.8 42.4 81 2.8 37 -89.8 -3.535
07:50 1026 30.3 856 25.28 5.8 42.4 81 2.8 37 -89.8 -3.535
07:51 1026 30.3 856 25.28 5.8 42.5 81 2.7 36.9 -89.8 -3.535
07:52 1026 30.3 856 25.28 5.8 42.5 80 2.7 36.8 -89.8 -3.535
07:53 1026 30.3 856 25.28 5.9 42.7 80 2.7 36.9 -89.9 -3.539
07:54 1026 30.3 856 25.28 6.1 42.9 78 2.6 36.7 -89.9 -3.539
07:55 1026 30.3 856 25.28 6.2 43.2 78 2.7 36.9 -89.9 -3.539
07:56 1026 30.3 856 25.28 6.3 43.4 78 2.8 37 -89.9 -3.539
07:57 1026 30.3 856 25.28 6.5 43.6 77 2.8 37.1 -89.9 -3.539
07:58 1026 30.3 856 25.28 6.6 43.8 77 2.9 37.2 -89.9 -3.539
07:59 1026 30.3 856 25.28 6.7 44 78 3.2 37.7 -89.9 -3.539
08:00 1026 30.3 856 25.28 6.7 44.1 79 3.3 37.9 -89.9 -3.539
08:01 1027 30.33 856 25.28 6.8 44.2 78 3.3 38 -89.9 -3.539
08:02 1027 30.33 856 25.28 6.9 44.4 78 3.3 38 -89.9 -3.539
08:03 1027 30.33 856 25.28 7 44.6 78 3.5 38.3 -89.9 -3.539
08:04 1027 30.33 856 25.28 7.1 44.8 78 3.5 38.3 -89.9 -3.539
08:05 1027 30.33 856 25.28 7.3 45.1 78 3.7 38.6 -89.9 -3.539
08:06 1027 30.33 856 25.28 7.4 45.3 77 3.7 38.6 -89.9 -3.539
08:07 1027 30.33 856 25.28 7.5 45.5 77 3.6 38.6 -90 -3.543
08:08 1027 30.33 856 25.28 7.6 45.7 77 3.8 38.8 -90 -3.543
08:09 1027 30.33 856 25.28 7.8 46 77 3.9 39.1 -90 -3.543
08:10 1027 30.33 856 25.28 7.9 46.2 77 4.1 39.4 -90 -3.543
08:11 1027 30.33 856 25.28 8 46.5 76 4.1 39.5 -90 -3.543
08:12 1027 30.33 856 25.28 8.2 46.7 77 4.4 39.9 -90 -3.543
08:13 1027 30.33 856 25.28 8.3 46.9 77 4.5 40.2 -90 -3.543
08:14 1027 30.33 856 25.28 8.5 47.2 78 4.8 40.6 -90 -3.543
08:15 1027 30.33 856 25.28 8.6 47.5 75 4.5 40 -90 -3.543
08:16 1027 30.33 856 25.28 8.7 47.7 73 4.2 39.6 -90 -3.543
08:17 1027 30.33 856 25.28 8.8 47.9 72 4.2 39.5 -90 -3.543
08:18 1027 30.33 856 25.28 8.9 48 73 4.3 39.7 -90 -3.543
08:19 1027 30.33 856 25.28 9 48.3 74 4.6 40.3 -90 -3.543
08:20 1027 30.33 856 25.28 9.1 48.5 73 4.5 40.1 -90 -3.543
08:21 1027 30.33 856 25.28 9.2 48.5 71 4.2 39.6 -90 -3.543
08:22 1027 30.33 856 25.28 9.3 48.7 70 4 39.3 -90 -3.543
08:23 1027 30.33 856 25.28 9.4 48.9 68 3.9 39 -90 -3.543
08:24 1027 30.33 856 25.28 9.5 49 68 4 39.1 -90 -3.543
08:25 1027 30.33 856 25.28 9.5 49.2 68 4 39.2 -90 -3.543
08:26 1027 30.33 856 25.28 9.6 49.2 69 4.1 39.4 -90 -3.543
08:27 1027 30.33 856 25.28 9.7 49.5 71 4.7 40.4 -90 -3.543
08:28 1027 30.33 856 25.28 9.7 49.5 67 3.9 39 -90 -3.543
08:29 1027 30.33 856 25.28 9.8 49.7 68 4.3 39.7 -90 -3.543
08:30 1027 30.33 856 25.28 9.9 49.8 70 4.7 40.4 -90 -3.543
08:31 1027 30.33 856 25.28 10 49.9 70 4.8 40.6 -90 -3.543
08:32 1027 30.33 856 25.28 10 50.1 70 4.8 40.6 -90 -3.543
08:33 1027 30.33 856 25.28 10.1 50.2 70 5 40.9 -89.9 -3.539
08:34 1027 30.33 856 25.28 10.2 50.4 70 5 40.9 -89.9 -3.539
08:35 1027 30.33 856 25.28 10.3 50.6 70 5.1 41.2 -89.9 -3.539
08:36 1027 30.33 856 25.28 10.4 50.7 69 5 41 -89.9 -3.539
08:37 1027 30.33 856 25.28 10.4 50.8 70 5.2 41.3 -89.9 -3.539
08:38 1027 30.33 856 25.28 10.5 50.9 70 5.3 41.6 -89.8 -3.535
08:39 1027 30.33 856 25.28 10.6 51.2 70 5.5 41.8 -89.8 -3.535
08:40 1027 30.33 856 25.28 10.7 51.3 69 5.3 41.6 -89.8 -3.535
08:41 1027 30.33 856 25.28 10.8 51.5 67 5 41 -89.8 -3.535
08:42 1027 30.33 856 25.28 10.9 51.6 68 5.3 41.6 -89.8 -3.535
08:43 1027 30.33 856 25.28 11 51.8 68 5.4 41.7 -89.8 -3.535
08:44 1027 30.33 856 25.28 11.1 52 69 5.7 42.2 -89.8 -3.535
08:45 1027 30.33 856 25.28 11.1 52 68 5.4 41.7 -89.8 -3.535
08:46 1027 30.33 856 25.28 11.2 52.1 68 5.5 41.9 -89.8 -3.535
08:47 1027 30.33 856 25.28 11.1 52 67 5.3 41.6 -89.8 -3.535
08:48 1027 30.33 856 25.28 11.2 52.1 69 5.7 42.2 -89.8 -3.535
08:49 1027 30.33 856 25.28 11.2 52.1 68 5.5 41.9 -89.8 -3.535
08:50 1027 30.33 856 25.28 11.2 52.2 69 5.7 42.3 -89.8 -3.535
08:51 1027 30.33 856 25.28 11.3 52.3 68 5.6 42.1 -89.8 -3.535
08:52 1027 30.33 856 25.28 11.3 52.3 67 5.5 41.8 -89.8 -3.535
08:53 1027 30.33 856 25.28 11.3 52.4 69 5.9 42.7 -89.8 -3.535
08:54 1027 30.33 856 25.28 11.4 52.6 68 5.8 42.5 -89.8 -3.535
08:55 1027 30.33 856 25.28 11.6 52.9 67 5.8 42.5 -89.8 -3.535
08:56 1027 30.33 856 25.28 11.7 53 66 5.5 41.8 -89.8 -3.535
08:57 1027 30.33 856 25.28 11.6 52.8 67 5.6 42.1 -89.8 -3.535
08:58 1027 30.33 856 25.28 11.5 52.7 66 5.4 41.7 -89.7 -3.531
08:59 1027 30.33 856 25.28 11.5 52.7 67 5.7 42.2 -89.7 -3.531
09:00 1027 30.33 856 25.28 11.6 52.8 67 5.7 42.2 -89.7 -3.531
09:01 1027 30.33 856 25.28 11.7 53.1 67 5.9 42.6 -89.7 -3.531
09:02 1027 30.33 856 25.28 11.8 53.3 67 5.9 42.6 -89.7 -3.531
09:03 1027 30.33 856 25.28 11.8 53.3 66 5.7 42.3 -89.7 -3.531
09:04 1027 30.33 856 25.28 11.9 53.3 65 5.6 42.1 -89.7 -3.531
09:05 1027 30.33 856 25.28 11.8 53.2 67 5.9 42.6 -89.7 -3.531
09:06 1027 30.33 856 25.28 11.8 53.2 68 6 42.9 -89.6 -3.528
09:07 1027 30.33 856 25.28 11.8 53.3 68 6.2 43.2 -89.6 -3.528
09:08 1027 30.33 856 25.28 12 53.5 66 5.8 42.5 -89.6 -3.528
09:09 1027 30.33 856 25.28 12 53.6 66 5.9 42.6 -89.6 -3.528
09:10 1027 30.33 856 25.28 12.1 53.8 67 6.1 43.1 -89.6 -3.528
09:11 1027 30.33 856 25.28 12.2 53.9 67 6.3 43.3 -89.6 -3.528
09:12 1027 30.33 856 25.28 12.3 54.1 66 6.1 43 -89.6 -3.528
09:13 1027 30.33 856 25.28 12.3 54.1 66 6.1 43 -89.5 -3.524
09:14 1027 30.33 856 25.28 12.5 54.4 64 5.8 42.5 -89.5 -3.524
09:15 1027 30.33 856 25.28 12.5 54.5 65 6.1 43 -89.5 -3.524
09:16 1027 30.33 856 25.28 12.5 54.5 65 6.2 43.1 -89.5 -3.524
09:17 1027 30.33 856 25.28 12.5 54.5 64 6 42.8 -89.5 -3.524
09:18 1027 30.33 856 25.28 12.6 54.7 64 6.1 43 -89.5 -3.524
09:19 1027 30.33 856 25.28 12.7 54.9 63 6 42.8 -89.5 -3.524
09:20 1027 30.33 856 25.28 12.8 55 63 6.1 43 -89.5 -3.524
09:21 1027 30.33 856 25.28 12.8 55.1 63 6.1 43 -89.5 -3.524
09:22 1027 30.33 856 25.28 12.8 55 64 6.2 43.1 -89.5 -3.524
09:23 1027 30.33 856 25.28 12.8 55 64 6.2 43.1 -89.5 -3.524
09:24 1027 30.33 856 25.28 12.8 55.1 62 5.9 42.6 -89.4 -3.52
09:25 1027 30.33 856 25.28 12.8 55 64 6.3 43.3 -89.4 -3.52
09:26 1027 30.33 856 25.28 12.9 55.2 63 6 42.8 -89.4 -3.52
09:27 1027 30.33 856 25.28 13.1 55.6 63 6.4 43.4 -89.4 -3.52
09:28 1027 30.33 856 25.28 13.3 55.9 62 6.1 43 -89.4 -3.52
09:29 1027 30.33 856 25.28 13.3 55.9 62 6.1 43.1 -89.4 -3.52
09:30 1027 30.33 856 25.28 13.4 56.1 63 6.5 43.6 -89.3 -3.516
09:31 1027 30.33 856 25.28 13.4 56.1 63 6.6 43.8 -89.3 -3.516
09:32 1027 30.33 856 25.28 13.2 55.8 62 6.1 42.9 -89.3 -3.516
09:33 1027 30.33 856 25.28 13 55.5 62 6.1 42.9 -89.3 -3.516
09:34 1027 30.33 856 25.28 13.1 55.5 63 6.2 43.1 -89.3 -3.516
09:35 1027 30.33 856 25.28 13.2 55.8 62 6.2 43.1 -89.3 -3.516
09:36 1027 30.33 856 25.28 13.3 56 63 6.5 43.7 -89.3 -3.516
09:37 1026 30.3 856 25.28 13.4 56.1 63 6.5 43.7 -89.3 -3.516
09:38 1026 30.3 856 25.28 13.4 56.1 61 6.2 43.1 -89.3 -3.516
09:39 1026 30.3 856 25.28 13.4 56.1 63 6.6 43.8 -89.3 -3.516
09:40 1026 30.3 856 25.28 13.3 56 62 6.3 43.3 -89.2 -3.512
09:41 1026 30.3 856 25.28 13.2 55.8 63 6.3 43.3 -89.2 -3.512
09:42 1026 30.3 856 25.28 13.2 55.8 62 6.1 43 -89.2 -3.512
09:43 1026 30.3 856 25.28 13.3 55.9 63 6.5 43.7 -89.2 -3.512
09:44 1026 30.3 856 25.28 13.4 56 64 6.7 44 -89.2 -3.512
09:45 1026 30.3 856 25.28 13.5 56.3 63 6.8 44.2 -89.1 -3.508
09:46 1026 30.3 856 25.28 13.6 56.4 63 6.6 43.9 -89.1 -3.508
09:47 1026 30.3 856 25.28 13.5 56.3 62 6.5 43.7 -89.1 -3.508
09:48 1026 30.3 856 25.28 13.5 56.3 63 6.6 43.9 -89.1 -3.508
09:49 1026 30.3 856 25.28 13.5 56.4 62 6.6 43.8 -89.1 -3.508
09:50 1026 30.3 856 25.28 13.6 56.4 62 6.6 43.8 -89.1 -3.508
09:51 1026 30.3 856 25.28 13.6 56.4 62 6.5 43.7 -89.1 -3.508
09:52 1026 30.3 856 25.28 13.6 56.4 61 6.2 43.2 -89.1 -3.508
09:53 1026 30.3 856 25.28 13.5 56.4 62 6.5 43.7 -89.1 -3.508
09:54 1026 30.3 856 25.28 13.6 56.4 61 6.3 43.3 -89 -3.504
09:55 1026 30.3 856 25.28 13.6 56.5 60 6.2 43.1 -89 -3.504
09:56 1026 30.3 856 25.28 13.7 56.6 61 6.3 43.4 -89 -3.504
09:57 1026 30.3 856 25.28 13.6 56.4 60 6 42.7 -89 -3.504
09:58 1026 30.3 856 25.28 13.6 56.4 61 6.2 43.2 -89 -3.504
09:59 1026 30.3 856 25.28 13.8 56.9 60 6.3 43.4 -88.9 -3.5
10:00 1026 30.3 856 25.28 13.9 57 60 6.3 43.3 -88.9 -3.5
10:01 1026 30.3 856 25.28 13.8 56.9 60 6.2 43.1 -88.9 -3.5
10:02 1026 30.3 856 25.28 13.8 56.8 61 6.5 43.6 -88.9 -3.5
10:03 1026 30.3 856 25.28 13.8 56.8 60 6.3 43.4 -88.9 -3.5
10:04 1026 30.3 856 25.28 13.8 56.9 62 6.7 44 -88.9 -3.5
10:05 1026 30.3 856 25.28 14 57.2 60 6.5 43.7 -88.8 -3.496
10:06 1026 30.3 856 25.28 14.1 57.3 57 5.8 42.5 -88.8 -3.496
10:07 1026 30.3 856 25.28 14.1 57.3 59 6.2 43.1 -88.8 -3.496
10:08 1026 30.3 856 25.28 14.1 57.3 60 6.4 43.5 -88.8 -3.496
10:09 1026 30.3 856 25.28 14 57.3 58 6.1 42.9 -88.8 -3.496
10:10 1026 30.3 856 25.28 14 57.2 61 6.6 43.8 -88.8 -3.496
10:11 1026 30.3 856 25.28 14 57.2 60 6.4 43.5 -88.8 -3.496
10:12 1026 30.3 856 25.28 14.1 57.3 60 6.4 43.5 -88.8 -3.496
10:13 1026 30.3 856 25.28 14.2 57.6 58 6.1 42.9 -88.7 -3.492
10:14 1026 30.3 856 25.28 14.5 58 60 6.9 44.4 -88.7 -3.492
10:15 1026 30.3 856 25.28 14.6 58.3 57 6.3 43.4 -88.7 -3.492
10:16 1026 30.3 856 25.28 14.7 58.5 58 6.7 44.1 -88.7 -3.492
10:17 1026 30.3 856 25.28 14.7 58.5 56 6.2 43.1 -88.7 -3.492
10:18 1026 30.3 856 25.28 14.6 58.2 58 6.4 43.5 -88.6 -3.488
10:19 1026 30.3 856 25.28 14.4 57.8 57 6.2 43.1 -88.6 -3.488
10:20 1026 30.3 856 25.28 14.3 57.8 58 6.2 43.2 -88.6 -3.488
10:21 1026 30.3 856 25.28 14.2 57.6 60 6.5 43.8 -88.6 -3.488
10:22 1026 30.3 856 25.28 14.3 57.7 58 6.2 43.2 -88.6 -3.488
10:23 1026 30.3 856 25.28 14.2 57.6 59 6.3 43.3 -88.6 -3.488
10:24 1026 30.3 856 25.28 14.3 57.7 59 6.4 43.6 -88.6 -3.488
10:25 1026 30.3 856 25.28 14.5 58.1 56 6 42.8 -88.6 -3.488
10:26 1026 30.3 856 25.28 14.6 58.2 56 6 42.7 -88.5 -3.484
10:27 1026 30.3 856 25.28 14.6 58.3 57 6.2 43.1 -88.5 -3.484
10:28 1026 30.3 855 25.25 14.6 58.2 59 6.8 44.2 -88.5 -3.484
10:29 1026 30.3 856 25.28 14.6 58.2 56 6 42.8 -88.5 -3.484
10:30 1026 30.3 856 25.28 14.5 58.2 57 6.2 43.2 -88.5 -3.484
10:31 1026 30.3 855 25.25 14.5 58.2 58 6.5 43.7 -88.4 -3.48
10:32 1026 30.3 855 25.25 14.6 58.3 56 6.1 43 -88.4 -3.48
10:33 1026 30.3 855 25.25 14.7 58.4 57 6.3 43.4 -88.4 -3.48
10:34 1026 30.3 855 25.25 14.7 58.5 56 6.2 43.2 -88.4 -3.48
10:35 1026 30.3 855 25.25 14.8 58.7 56 6.2 43.1 -88.4 -3.48
10:36 1026 30.3 855 25.25 14.9 58.9 57 6.6 43.9 -88.4 -3.48
10:37 1026 30.3 855 25.25 15.1 59.2 59 7.1 44.8 -88.4 -3.48
10:38 1026 30.3 855 25.25 15.2 59.4 55 6.3 43.3 -88.4 -3.48
10:39 1026 30.3 855 25.25 15.2 59.3 55 6.3 43.4 -88.3 -3.476
10:40 1026 30.3 855 25.25 15.1 59.2 54 6 42.8 -88.3 -3.476
10:41 1026 30.3 855 25.25 15.2 59.3 54 6.1 43 -88.3 -3.476
10:42 1026 30.3 855 25.25 15.1 59.3 55 6.2 43.2 -88.3 -3.476
10:43 1026 30.3 855 25.25 15.2 59.4 56 6.5 43.7 -88.3 -3.476
10:44 1026 30.3 855 25.25 15.4 59.8 54 6.2 43.2 -88.3 -3.476
10:45 1026 30.3 855 25.25 15.6 60.1 52 6 42.9 -88.3 -3.476
10:46 1026 30.3 855 25.25 15.7 60.2 55 6.9 44.3 -88.2 -3.472
10:47 1026 30.3 855 25.25 15.7 60.3 54 6.4 43.6 -88.2 -3.472
10:48 1026 30.3 855 25.25 15.7 60.3 54 6.4 43.5 -88.2 -3.472
10:49 1026 30.3 855 25.25 15.7 60.2 53 6.2 43.1 -88.2 -3.472
10:50 1026 30.3 855 25.25 15.6 60.1 55 6.6 43.8 -88.2 -3.472
10:51 1026 30.3 855 25.25 15.6 60 55 6.7 44.1 -88.2 -3.472
10:52 1026 30.3 855 25.25 15.6 60 53 6.1 43.1 -88.1 -3.469
10:53 1026 30.3 855 25.25 15.4 59.8 57 7 44.6 -88.1 -3.469
10:54 1026 30.3 855 25.25 15.3 59.6 54 6.2 43.2 -88.1 -3.469
10:55 1026 30.3 855 25.25 15.3 59.5 54 6.1 43 -88.1 -3.469
10:56 1026 30.3 855 25.25 15.3 59.5 55 6.3 43.4 -88.1 -3.469
10:57 1026 30.3 855 25.25 15.4 59.7 55 6.6 43.9 -88 -3.465
10:58 1026 30.3 855 25.25 15.6 60.1 52 5.8 42.5 -88 -3.465
10:59 1026 30.3 855 25.25 15.6 60 54 6.3 43.3 -88 -3.465
11:00 1026 30.3 855 25.25 15.5 59.8 53 6 42.8 -88 -3.465
11:01 1026 30.3 855 25.25 15.5 59.8 53 6.1 42.9 -88 -3.465
11:02 1026 30.3 855 25.25 15.5 59.9 53 6 42.9 -87.9 -3.461
11:03 1026 30.3 855 25.25 15.7 60.3 53 6.2 43.2 -87.9 -3.461
11:04 1026 30.3 855 25.25 15.9 60.7 50 5.7 42.3 -87.9 -3.461
11:05 1026 30.3 855 25.25 16 60.8 51 5.9 42.7 -87.9 -3.461
11:06 1026 30.3 855 25.25 16 60.9 51 6 42.8 -87.9 -3.461
11:07 1026 30.3 855 25.25 16.1 60.9 50 5.8 42.4 -87.8 -3.457
11:08 1026 30.3 855 25.25 16.1 60.9 52 6.2 43.1 -87.8 -3.457
11:09 1026 30.3 855 25.25 16.2 61.2 50 5.8 42.4 -87.8 -3.457
11:10 1026 30.3 855 25.25 16.3 61.3 49 5.6 42.2 -87.8 -3.457
11:11 1026 30.3 855 25.25 16.2 61.2 50 6 42.9 -87.8 -3.457
11:12 1026 30.3 855 25.25 16.1 61 50 5.8 42.5 -87.7 -3.453
11:13 1026 30.3 855 25.25 16 60.9 53 6.5 43.7 -87.7 -3.453
11:14 1026 30.3 855 25.25 15.9 60.7 51 5.8 42.4 -87.7 -3.453
11:15 1026 30.3 855 25.25 15.9 60.6 51 5.8 42.4 -87.7 -3.453
11:16 1026 30.3 855 25.25 15.9 60.7 53 6.6 43.8 -87.7 -3.453
11:17 1026 30.3 855 25.25 16 60.7 53 6.5 43.8 -87.7 -3.453
11:18 1026 30.3 855 25.25 16 60.8 52 6.2 43.1 -87.7 -3.453
11:19 1026 30.3 855 25.25 16.1 61.1 53 6.6 43.9 -87.7 -3.453
11:20 1026 30.3 855 25.25 16.4 61.4 53 6.9 44.4 -87.6 -3.449
11:21 1026 30.3 855 25.25 16.6 61.8 51 6.4 43.6 -87.6 -3.449
11:22 1026 30.3 855 25.25 16.7 62.1 49 6.1 42.9 -87.6 -3.449
11:23 1026 30.3 855 25.25 17 62.5 47 5.8 42.4 -87.6 -3.449
11:24 1026 30.3 855 25.25 17 62.7 50 6.6 43.8 -87.5 -3.445
11:25 1026 30.3 855 25.25 17 62.6 51 6.9 44.4 -87.5 -3.445
11:26 1026 30.3 855 25.25 17 62.5 51 6.8 44.3 -87.5 -3.445
11:27 1026 30.3 855 25.25 16.7 62 51 6.6 43.9 -87.5 -3.445
11:28 1026 30.3 855 25.25 16.6 61.8 53 7 44.5 -87.5 -3.445
11:29 1026 30.3 855 25.25 16.6 61.8 51 6.5 43.6 -87.5 -3.445
11:30 1026 30.3 855 25.25 16.7 62 51 6.7 44 -87.4 -3.441
11:31 1026 30.3 855 25.25 16.9 62.4 50 6.5 43.8 -87.4 -3.441
11:32 1026 30.3 855 25.25 17.1 62.8 49 6.5 43.6 -87.4 -3.441
11:33 1026 30.3 855 25.25 17 62.7 49 6.5 43.7 -87.4 -3.441
11:34 1026 30.3 855 25.25 16.9 62.5 51 6.8 44.2 -87.4 -3.441
11:35 1026 30.3 855 25.25 16.9 62.4 51 6.7 44 -87.3 -3.437
11:36 1026 30.3 855 25.25 17.1 62.7 49 6.5 43.6 -87.3 -3.437
11:37 1026 30.3 855 25.25 17.1 62.8 49 6.3 43.3 -87.3 -3.437
11:38 1026 30.3 855 25.25 17.1 62.8 49 6.3 43.4 -87.3 -3.437
11:39 1026 30.3 855 25.25 17.2 62.9 48 6.3 43.4 -87.2 -3.433
11:40 1026 30.3 855 25.25 17.3 63.2 48 6.4 43.6 -87.2 -3.433
11:41 1026 30.3 855 25.25 17.5 63.6 46 6 42.8 -87.2 -3.433
11:42 1026 30.3 855 25.25 17.5 63.4 48 6.4 43.5 -87.2 -3.433
11:43 1026 30.3 855 25.25 17.6 63.6 51 7.6 45.6 -87.2 -3.433
11:44 1026 30.3 855 25.25 17.8 64 47 6.5 43.6 -87.1 -3.429
11:45 1026 30.3 855 25.25 17.7 63.9 49 7 44.6 -87.1 -3.429
11:46 1026 30.3 855 25.25 17.6 63.6 47 6.2 43.2 -87.1 -3.429
11:47 1026 30.3 855 25.25 17.4 63.2 48 6.3 43.3 -87.1 -3.429
11:48 1026 30.3 855 25.25 17.2 63 48 6.2 43.1 -87.1 -3.429
11:49 1026 30.3 855 25.25 17.3 63.1 48 6.3 43.3 -87.1 -3.429
11:50 1026 30.3 855 25.25 17.3 63.1 49 6.5 43.7 -87.1 -3.429
11:51 1026 30.3 855 25.25 17.3 63.1 51 7.1 44.8 -87 -3.425
11:52 1026 30.3 855 25.25 17.5 63.6 49 6.7 44.1 -87 -3.425
11:53 1026 30.3 855 25.25 17.8 64 48 6.9 44.3 -86.9 -3.421
11:54 1026 30.3 855 25.25 18.1 64.6 46 6.5 43.7 -86.9 -3.421
11:55 1026 30.3 855 25.25 18.3 64.9 46 6.4 43.6 -86.9 -3.421
11:56 1026 30.3 855 25.25 18.4 65.1 46 6.8 44.2 -86.9 -3.421
11:57 1026 30.3 855 25.25 18.4 65.1 45 6.4 43.6 -86.9 -3.421
11:58 1026 30.3 855 25.25 18.2 64.8 46 6.4 43.6 -86.8 -3.417
11:59 1026 30.3 855 25.25 17.9 64.2 46 6.2 43.1 -86.8 -3.417
12:00 1026 30.3 855 25.25 17.7 63.9 47 6.3 43.4 -86.8 -3.417
12:01 1026 30.3 855 25.25 17.8 64.1 47 6.6 43.9 -86.7 -3.413
12:02 1026 30.3 855 25.25 18 64.3 45 6.1 42.9 -86.7 -3.413
12:03 1026 30.3 855 25.25 18 64.3 45 6.1 43 -86.7 -3.413
12:04 1026 30.3 855 25.25 17.9 64.2 47 6.4 43.5 -86.7 -3.413
12:05 1026 30.3 855 25.25 17.9 64.3 49 7.1 44.8 -86.7 -3.413
12:06 1026 30.3 855 25.25 18 64.3 47 6.7 44 -86.6 -3.409
12:07 1026 30.3 855 25.25 18.1 64.5 49 7.3 45.1 -86.6 -3.409
12:08 1026 30.3 855 25.25 18.1 64.6 47 6.7 44 -86.6 -3.409
12:09 1026 30.3 855 25.25 18 64.5 45 6 42.8 -86.6 -3.409
12:10 1026 30.3 855 25.25 17.9 64.2 46 6.4 43.5 -86.6 -3.409
12:11 1026 30.3 855 25.25 17.9 64.1 48 6.9 44.5 -86.5 -3.406
12:12 1026 30.3 855 25.25 18 64.4 48 6.9 44.3 -86.5 -3.406
12:13 1026 30.3 855 25.25 18.1 64.6 47 6.9 44.4 -86.5 -3.406
12:14 1026 30.3 855 25.25 18.2 64.7 46 6.4 43.4 -86.5 -3.406
12:15 1026 30.3 855 25.25 18.3 64.9 46 6.5 43.7 -86.4 -3.402
12:16 1026 30.3 855 25.25 18.5 65.2 47 7.1 44.8 -86.4 -3.402
12:17 1026 30.3 855 25.25 18.6 65.5 44 6.3 43.3 -86.4 -3.402
12:18 1026 30.3 855 25.25 18.6 65.5 46 6.9 44.5 -86.4 -3.402
12:19 1026 30.3 855 25.25 18.6 65.4 47 7.1 44.8 -86.3 -3.398
12:20 1026 30.3 855 25.25 18.4 65.2 45 6.4 43.5 -86.3 -3.398
12:21 1026 30.3 855 25.25 18.3 65 46 6.6 43.9 -86.3 -3.398
12:22 1026 30.3 855 25.25 18.4 65.1 48 7.3 45.2 -86.3 -3.398
12:23 1026 30.3 855 25.25 18.5 65.3 45 6.5 43.7 -86.3 -3.398
12:24 1026 30.3 855 25.25 18.5 65.3 48 7.3 45.2 -86.3 -3.398
12:25 1026 30.3 855 25.25 18.7 65.6 48 7.5 45.6 -86.2 -3.394
12:26 1026 30.3 855 25.25 18.7 65.7 45 6.8 44.2 -86.2 -3.394
12:27 1026 30.3 855 25.25 18.6 65.5 45 6.5 43.7 -86.2 -3.394
12:28 1026 30.3 855 25.25 18.4 65.1 47 7.1 44.8 -86.2 -3.394
12:29 1026 30.3 855 25.25 18.3 64.9 48 7.1 44.8 -86.1 -3.39
12:30 1026 30.3 855 25.25 18.2 64.8 46 6.4 43.5 -86.1 -3.39
12:31 1026 30.3 855 25.25 18.2 64.7 46 6.4 43.5 -86.1 -3.39
12:32 1026 30.3 855 25.25 18.3 64.9 47 6.9 44.4 -86.1 -3.39
12:33 1025 30.27 855 25.25 18.6 65.4 47 7.3 45.1 -86.1 -3.39
12:34 1025 30.27 855 25.25 18.7 65.6 44 6.3 43.4 -86 -3.386
12:35 1025 30.27 855 25.25 18.5 65.3 45 6.5 43.7 -86 -3.386
12:36 1025 30.27 855 25.25 18.4 65.1 45 6.4 43.6 -86 -3.386
12:37 1025 30.27 855 25.25 18.4 65.1 46 6.8 44.2 -86 -3.386
12:38 1025 30.27 855 25.25 18.6 65.6 46 6.9 44.5 -86 -3.386
12:39 1025 30.27 855 25.25 18.9 65.9 46 7.1 44.8 -86 -3.386
12:40 1025 30.27 855 25.25 19 66.1 44 6.5 43.7 -86 -3.386
12:41 1025 30.27 855 25.25 18.9 66 45 6.8 44.2 -86 -3.386
12:42 1025 30.27 855 25.25 18.9 66 44 6.4 43.6 -85.9 -3.382
12:43 1025 30.27 855 25.25 18.9 65.9 46 7 44.6 -85.9 -3.382
12:44 1025 30.27 855 25.25 19 66.1 47 7.7 45.8 -85.9 -3.382
12:45 1025 30.27 855 25.25 19.1 66.4 46 7.4 45.3 -85.9 -3.382
12:46 1025 30.27 854 25.22 19.2 66.6 45 7 44.6 -85.8 -3.378
12:47 1025 30.27 854 25.22 19.1 66.4 46 7.5 45.4 -85.8 -3.378
12:48 1025 30.27 854 25.22 19.1 66.3 46 7.2 44.9 -85.8 -3.378
12:49 1025 30.27 854 25.22 19.1 66.4 46 7.3 45.1 -85.8 -3.378
12:50 1025 30.27 854 25.22 19.3 66.7 46 7.4 45.3 -85.8 -3.378
12:51 1025 30.27 854 25.22 19.3 66.7 45 7.4 45.3 -85.8 -3.378
12:52 1025 30.27 854 25.22 19.3 66.7 45 7 44.7 -85.8 -3.378
12:53 1025 30.27 854 25.22 19.3 66.8 44 7 44.5 -85.7 -3.374
12:54 1025 30.27 854 25.22 19.4 67 46 7.6 45.6 -85.7 -3.374
12:55 1025 30.27 854 25.22 19.4 67 45 7.3 45.1 -85.7 -3.374
12:56 1025 30.27 854 25.22 19.3 66.8 45 7.3 45.2 -85.7 -3.374
12:57 1025 30.27 854 25.22 19.4 66.9 45 7.3 45.1 -85.7 -3.374
12:58 1025 30.27 854 25.22 19.5 67.2 45 7.5 45.5 -85.7 -3.374
12:59 1025 30.27 854 25.22 19.7 67.5 44 7.2 45 -85.6 -3.37
13:00 1025 30.27 854 25.22 19.7 67.5 42 6.5 43.7 -85.6 -3.37
13:01 1025 30.27 854 25.22 19.6 67.3 44 7.2 45 -85.6 -3.37
13:02 1025 30.27 854 25.22 19.6 67.4 45 7.4 45.3 -85.6 -3.37
13:03 1025 30.27 854 25.22 19.8 67.6 44 7.3 45.2 -85.6 -3.37
13:04 1025 30.27 854 25.22 19.7 67.4 42 6.6 43.9 -85.6 -3.37
13:05 1025 30.27 854 25.22 19.5 67 44 7.1 44.8 -85.6 -3.37
13:06 1025 30.27 854 25.22 19.5 67.2 46 7.6 45.7 -85.5 -3.366
13:07 1025 30.27 854 25.22 19.6 67.3 44 7.3 45.2 -85.5 -3.366
13:08 1025 30.27 854 25.22 19.6 67.3 43 6.9 44.4 -85.5 -3.366
13:09 1025 30.27 854 25.22 19.8 67.6 44 7.4 45.3 -85.5 -3.366
13:10 1025 30.27 854 25.22 19.9 67.9 41 6.5 43.7 -85.5 -3.366
13:11 1025 30.27 854 25.22 20 68.1 43 7.3 45.1 -85.4 -3.362
13:12 1025 30.27 854 25.22 20.1 68.2 44 7.7 45.8 -85.4 -3.362
13:13 1025 30.27 854 25.22 20.4 68.7 45 8.1 46.5 -85.4 -3.362
13:14 1025 30.27 854 25.22 20.7 69.2 41 7.2 45 -85.4 -3.362
13:15 1025 30.27 854 25.22 20.8 69.4 42 7.6 45.6 -85.4 -3.362
13:16 1025 30.27 854 25.22 20.7 69.2 44 8.3 46.9 -85.4 -3.362
13:17 1025 30.27 854 25.22 20.6 69.1 44 8 46.4 -85.4 -3.362
13:18 1025 30.27 854 25.22 20.6 69.1 41 7 44.7 -85.4 -3.362
13:19 1025 30.27 854 25.22 20.6 69.1 40 6.6 43.8 -85.3 -3.358
13:20 1025 30.27 854 25.22 20.6 69 40 6.6 43.9 -85.3 -3.358
13:21 1025 30.27 854 25.22 20.5 68.8 41 6.8 44.3 -85.3 -3.358
13:22 1025 30.27 854 25.22 20.4 68.7 40 6.5 43.7 -85.3 -3.358
13:23 1025 30.27 854 25.22 20.5 68.8 42 7.1 44.8 -85.3 -3.358
13:24 1025 30.27 854 25.22 20.6 69.1 41 7.1 44.8 -85.3 -3.358
13:25 1025 30.27 854 25.22 20.7 69.3 41 7.3 45.1 -85.2 -3.354
13:26 1025 30.27 854 25.22 20.7 69.2 40 6.9 44.4 -85.2 -3.354
13:27 1025 30.27 854 25.22 20.5 68.8 42 7.4 45.3 -85.2 -3.354
13:28 1025 30.27 854 25.22 20.4 68.7 42 7.3 45.1 -85.2 -3.354
13:29 1025 30.27 854 25.22 20.3 68.6 42 7.1 44.7 -85.2 -3.354
13:30 1025 30.27 854 25.22 20.3 68.6 40 6.4 43.5 -85.2 -3.354
13:31 1025 30.27 854 25.22 20.4 68.7 41 7 44.5 -85.2 -3.354
13:32 1025 30.27 854 25.22 20.4 68.8 43 7.6 45.8 -85.1 -3.35
13:33 1025 30.27 854 25.22 20.5 69 40 6.6 43.8 -85.1 -3.35
13:34 1025 30.27 854 25.22 20.5 69 39 6.3 43.3 -85.1 -3.35
13:35 1025 30.27 854 25.22 20.4 68.7 40 6.6 43.8 -85.1 -3.35
13:36 1025 30.27 854 25.22 20.3 68.6 40 6.3 43.4 -85.1 -3.35
13:37 1025 30.27 854 25.22 20.4 68.7 40 6.4 43.5 -85.1 -3.35
13:38 1025 30.27 854 25.22 20.4 68.8 39 6.2 43.2 -85.1 -3.35
13:39 1025 30.27 854 25.22 20.5 68.9 41 6.9 44.4 -85.1 -3.35
13:40 1025 30.27 854 25.22 20.5 68.9 39 6.1 43 -85.1 -3.35
13:41 1025 30.27 854 25.22 20.5 68.8 39 6.3 43.3 -85.1 -3.35
13:42 1025 30.27 854 25.22 20.6 69.1 39 6.3 43.3 -85 -3.346
13:43 1025 30.27 854 25.22 20.7 69.3 39 6.4 43.5 -85 -3.346
13:44 1025 30.27 854 25.22 20.8 69.5 39 6.4 43.5 -85 -3.346
13:45 1025 30.27 854 25.22 20.8 69.5 40 6.7 44.1 -85 -3.346
13:46 1025 30.27 854 25.22 20.8 69.4 39 6.5 43.8 -85 -3.346
13:47 1025 30.27 854 25.22 20.8 69.5 40 7 44.6 -85 -3.346
13:48 1025 30.27 854 25.22 20.8 69.5 39 6.4 43.5 -85 -3.346
13:49 1025 30.27 854 25.22 20.8 69.5 41 7.1 44.9 -84.9 -3.343
13:50 1025 30.27 854 25.22 20.9 69.6 39 6.5 43.6 -84.9 -3.343
13:51 1025 30.27 854 25.22 21 69.7 40 7.1 44.7 -84.9 -3.343
13:52 1025 30.27 854 25.22 20.9 69.7 38 6.4 43.5 -84.9 -3.343
13:53 1025 30.27 854 25.22 20.9 69.7 38 6.1 43 -84.9 -3.343
13:54 1025 30.27 854 25.22 21 69.8 39 6.6 43.9 -84.9 -3.343
13:55 1025 30.27 854 25.22 21.1 70 39 6.7 44 -84.9 -3.343
13:56 1025 30.27 854 25.22 21.2 70.1 38 6.6 43.9 -84.8 -3.339
13:57 1025 30.27 854 25.22 21.1 70 37 6.2 43.2 -84.8 -3.339
13:58 1025 30.27 854 25.22 21.1 69.9 39 6.8 44.3 -84.8 -3.339
13:59 1025 30.27 854 25.22 21.3 70.3 39 7.1 44.8 -84.8 -3.339
14:00 1025 30.27 854 25.22 21.3 70.3 38 6.6 43.9 -84.8 -3.339
14:01 1025 30.27 854 25.22 21.5 70.6 36 6 42.8 -84.8 -3.339
14:02 1025 30.27 854 25.22 21.4 70.6 38 6.6 43.8 -84.7 -3.335
14:03 1024 30.24 854 25.22 21.4 70.5 40 7.3 45.1 -84.7 -3.335
14:04 1024 30.24 854 25.22 21.4 70.5 36 6 42.8 -84.7 -3.335
14:05 1025 30.27 854 25.22 21.4 70.6 37 6.2 43.2 -84.7 -3.335
14:06 1024 30.24 854 25.22 21.4 70.6 37 6.2 43.1 -84.7 -3.335
14:07 1024 30.24 854 25.22 21.3 70.4 38 6.7 44 -84.7 -3.335
14:08 1024 30.24 854 25.22 21.4 70.6 38 6.7 44.1 -84.6 -3.331
14:09 1024 30.24 854 25.22 21.5 70.8 36 6 42.9 -84.6 -3.331
14:10 1024 30.24 854 25.22 21.5 70.8 37 6.4 43.4 -84.6 -3.331
14:11 1024 30.24 854 25.22 21.5 70.7 36 5.8 42.5 -84.6 -3.331
14:12 1024 30.24 854 25.22 21.5 70.7 38 6.8 44.2 -84.6 -3.331
14:13 1024 30.24 854 25.22 21.7 71 35 5.9 42.6 -84.5 -3.327
14:14 1024 30.24 854 25.22 21.8 71.3 33 5.2 41.4 -84.5 -3.327
14:15 1024 30.24 854 25.22 21.9 71.5 33 5.3 41.5 -84.5 -3.327
14:16 1024 30.24 854 25.22 22 71.6 36 6.2 43.2 -84.4 -3.323
14:17 1024 30.24 854 25.22 22.1 71.7 36 6.3 43.4 -84.4 -3.323
14:18 1024 30.24 854 25.22 22.2 71.9 37 6.8 44.2 -84.4 -3.323
14:19 1024 30.24 854 25.22 22.4 72.2 37 7.2 45 -84.4 -3.323
14:20 1024 30.24 854 25.22 22.4 72.3 33 5.5 41.9 -84.4 -3.323
14:21 1024 30.24 854 25.22 22.2 72 34 5.7 42.3 -84.4 -3.323
14:22 1024 30.24 854 25.22 22.1 71.7 33 5.2 41.4 -84.3 -3.319
14:23 1024 30.24 853 25.19 22.1 71.8 34 5.9 42.6 -84.3 -3.319
14:24 1024 30.24 853 25.19 22.3 72.1 33 5.6 42.1 -84.3 -3.319
14:25 1024 30.24 853 25.19 22.3 72.2 33 5.6 42.2 -84.3 -3.319
14:26 1024 30.24 853 25.19 22.4 72.2 33 5.6 42.1 -84.2 -3.315
14:27 1024 30.24 853 25.19 22.5 72.5 33 5.4 41.8 -84.2 -3.315
14:28 1024 30.24 853 25.19 22.6 72.6 36 6.9 44.4 -84.2 -3.315
14:29 1024 30.24 853 25.19 22.7 72.8 33 5.7 42.3 -84.2 -3.315
14:30 1024 30.24 853 25.19 22.6 72.7 33 5.8 42.5 -84.2 -3.315
14:31 1024 30.24 853 25.19 22.5 72.5 33 5.6 42.1 -84.1 -3.311
14:32 1024 30.24 853 25.19 22.4 72.4 32 5.3 41.5 -84.1 -3.311
14:33 1024 30.24 853 25.19 22.5 72.6 36 7 44.6 -84 -3.307
14:34 1024 30.24 853 25.19 22.9 73.2 33 5.9 42.7 -84 -3.307
14:35 1024 30.24 853 25.19 23 73.4 34 6.4 43.5 -84 -3.307
14:36 1024 30.24 853 25.19 23.1 73.5 33 6.2 43.2 -84 -3.307
14:37 1024 30.24 853 25.19 23 73.5 33 6.1 43.1 -83.9 -3.303
14:38 1024 30.24 853 25.19 23 73.5 35 7 44.6 -83.9 -3.303
14:39 1024 30.24 853 25.19 22.9 73.2 33 5.9 42.5 -83.9 -3.303
14:40 1024 30.24 853 25.19 22.7 72.8 33 5.7 42.3 -83.8 -3.299
14:41 1024 30.24 853 25.19 22.6 72.7 33 5.8 42.5 -83.8 -3.299
14:42 1024 30.24 853 25.19 22.6 72.7 37 7.5 45.5 -83.8 -3.299
14:43 1024 30.24 853 25.19 22.6 72.6 36 6.9 44.4 -83.8 -3.299
14:44 1024 30.24 853 25.19 22.6 72.7 35 6.4 43.5 -83.8 -3.299
14:45 1024 30.24 853 25.19 22.6 72.6 35 6.5 43.7 -83.7 -3.295
14:46 1024 30.24 853 25.19 22.6 72.7 34 6.3 43.4 -83.7 -3.295
14:47 1024 30.24 853 25.19 22.6 72.7 33 5.9 42.7 -83.6 -3.291
14:48 1024 30.24 853 25.19 22.7 72.9 36 7.1 44.8 -83.6 -3.291
14:49 1024 30.24 853 25.19 22.9 73.3 37 7.5 45.5 -83.6 -3.291
14:50 1024 30.24 853 25.19 23.1 73.6 32 5.6 42.1 -83.5 -3.287
14:51 1024 30.24 853 25.19 23.3 73.9 33 6.3 43.3 -83.5 -3.287
14:52 1024 30.24 853 25.19 23.5 74.3 32 5.9 42.5 -83.5 -3.287
14:53 1024 30.24 853 25.19 23.7 74.7 32 6.5 43.7 -83.4 -3.283
14:54 1024 30.24 853 25.19 23.8 74.9 32 6.4 43.6 -83.4 -3.283
14:55 1024 30.24 853 25.19 23.7 74.6 30 5.5 41.8 -83.4 -3.283
14:56 1024 30.24 853 25.19 23.3 74 33 6.4 43.5 -83.3 -3.28
14:57 1024 30.24 853 25.19 23.2 73.7 32 5.7 42.3 -83.3 -3.28
14:58 1024 30.24 853 25.19 23.2 73.7 32 6 42.7 -83.3 -3.28
14:59 1024 30.24 853 25.19 23.3 73.9 31 5.6 42.1 -83.3 -3.28
15:00 1024 30.24 853 25.19 23.4 74.1 32 6 42.8 -83.2 -3.276
15:01 1024 30.24 853 25.19 23.5 74.3 31 5.5 41.9 -83.2 -3.276
15:02 1024 30.24 853 25.19 23.6 74.5 35 7.6 45.6 -83.1 -3.272
15:03 1024 30.24 853 25.19 23.8 74.9 33 6.6 43.9 -83.1 -3.272
15:04 1024 30.24 853 25.19 23.9 75 32 6.4 43.6 -83.1 -3.272
15:05 1024 30.24 853 25.19 24 75.1 34 7.3 45.2 -83 -3.268
15:06 1024 30.24 853 25.19 24 75.2 32 6.7 44.1 -83 -3.268
15:07 1024 30.24 853 25.19 23.9 75.1 32 6.4 43.6 -82.9 -3.264
15:08 1024 30.24 853 25.19 23.9 74.9 30 5.2 41.4 -82.9 -3.264
15:09 1024 30.24 853 25.19 23.9 75 31 5.9 42.7 -82.9 -3.264
15:10 1024 30.24 853 25.19 23.8 74.9 32 6.1 43.1 -82.9 -3.264
15:11 1024 30.24 853 25.19 23.9 75.1 29 4.9 40.8 -82.8 -3.26
15:12 1024 30.24 853 25.19 23.9 75.1 30 5.4 41.8 -82.8 -3.26
15:13 1023 30.21 853 25.19 24 75.1 30 5.4 41.6 -82.7 -3.256
15:14 1023 30.21 853 25.19 24 75.2 30 5.6 42.2 -82.7 -3.256
15:15 1023 30.21 853 25.19 24 75.1 29 5.1 41.1 -82.7 -3.256
15:16 1023 30.21 853 25.19 23.8 74.8 29 5.1 41.2 -82.6 -3.252
15:17 1023 30.21 853 25.19 23.7 74.7 30 5.1 41.3 -82.6 -3.252
15:18 1023 30.21 853 25.19 23.9 74.9 29 5.2 41.3 -82.5 -3.248
15:19 1023 30.21 853 25.19 24 75.2 28 4.8 40.7 -82.5 -3.248
15:20 1023 30.21 853 25.19 24.1 75.3 28 4.8 40.7 -82.4 -3.244
15:21 1023 30.21 853 25.19 24.3 75.7 29 5.2 41.3 -82.4 -3.244
15:22 1023 30.21 853 25.19 24.4 76 29 5.5 41.8 -82.3 -3.24
15:23 1023 30.21 852 25.16 24.5 76 27 4.6 40.3 -82.3 -3.24
15:24 1023 30.21 852 25.16 24.5 76 28 4.8 40.7 -82.3 -3.24
15:25 1023 30.21 852 25.16 24.6 76.3 29 5.4 41.7 -82.2 -3.236
15:26 1023 30.21 852 25.16 24.7 76.5 27 4.9 40.9 -82.2 -3.236
15:27 1023 30.21 852 25.16 24.7 76.5 29 5.8 42.4 -82.1 -3.232
15:28 1023 30.21 852 25.16 24.8 76.6 27 4.6 40.3 -82.1 -3.232
15:29 1023 30.21 852 25.16 24.8 76.7 27 4.9 40.9 -82 -3.228
15:30 1023 30.21 852 25.16 24.9 76.9 30 6.4 43.5 -82 -3.228
15:31 1023 30.21 852 25.16 24.9 76.9 28 5.6 42.1 -81.9 -3.224
15:32 1023 30.21 852 25.16 24.9 76.8 29 5.8 42.4 -81.9 -3.224
15:33 1023 30.21 852 25.16 24.9 76.9 27 5.1 41.2 -81.8 -3.22
15:34 1023 30.21 852 25.16 25 77.1 27 5.2 41.3 -81.8 -3.22
15:35 1023 30.21 852 25.16 25 77.1 29 5.8 42.5 -81.7 -3.217
15:36 1023 30.21 852 25.16 25 77 28 5.2 41.4 -81.7 -3.217
15:37 1023 30.21 852 25.16 25 77 26 4.2 39.5 -81.6 -3.213
15:38 1023 30.21 852 25.16 24.9 76.9 26 4.3 39.8 -81.6 -3.213
15:39 1023 30.21 852 25.16 24.9 76.8 27 5.1 41.1 -81.6 -3.213
15:40 1023 30.21 852 25.16 25 76.9 26 4.4 39.9 -81.5 -3.209
15:41 1023 30.21 852 25.16 25 76.9 26 4.1 39.4 -81.4 -3.205
15:42 1023 30.21 852 25.16 24.9 76.8 28 5.5 41.9 -81.4 -3.205
15:43 1023 30.21 852 25.16 24.9 76.9 27 5 40.9 -81.4 -3.205
15:44 1023 30.21 852 25.16 25 76.9 26 4.7 40.4 -81.3 -3.201
15:45 1023 30.21 852 25.16 25 77 26 4.5 40.1 -81.3 -3.201
15:46 1023 30.21 852 25.16 24.9 76.8 27 4.6 40.3 -81.2 -3.197
15:47 1023 30.21 852 25.16 25 77 27 5 41 -81.1 -3.193
15:48 1023 30.21 852 25.16 25.1 77.1 26 4.2 39.6 -81.1 -3.193
15:49 1023 30.21 852 25.16 25 77 25 4 39.3 -81.1 -3.193
15:50 1023 30.21 852 25.16 24.9 76.9 27 4.7 40.5 -81 -3.189
15:51 1023 30.21 852 25.16 24.8 76.7 26 4.2 39.6 -81 -3.189
15:52 1023 30.21 852 25.16 24.8 76.7 24 3.4 38.1 -80.9 -3.185
15:53 1023 30.21 852 25.16 24.8 76.6 24 3 37.4 -80.9 -3.185
15:54 1023 30.21 852 25.16 24.8 76.7 26 4 39.2 -80.8 -3.181
15:55 1023 30.21 852 25.16 25 77 26 4.2 39.5 -80.8 -3.181
15:56 1023 30.21 852 25.16 25.1 77.2 24 3.3 37.9 -80.7 -3.177
15:57 1023 30.21 852 25.16 25.2 77.3 24 3.6 38.4 -80.7 -3.177
15:58 1023 30.21 852 25.16 25.2 77.3 23 2.7 36.9 -80.7 -3.177
15:59 1023 30.21 852 25.16 25.2 77.3 24 3.7 38.6 -80.6 -3.173
16:00 1023 30.21 852 25.16 25.2 77.3 25 3.8 38.9 -80.6 -3.173
16:01 1023 30.21 852 25.16 25.3 77.5 25 3.8 38.8 -80.5 -3.169
16:02 1023 30.21 852 25.16 25.3 77.5 22 2.6 36.6 -80.5 -3.169
16:03 1023 30.21 852 25.16 25.3 77.5 22 2.1 35.7 -80.5 -3.169
16:04 1023 30.21 852 25.16 25.3 77.5 26 4.6 40.2 -80.4 -3.165
16:05 1023 30.21 852 25.16 25.4 77.6 22 2.7 36.8 -80.4 -3.165
16:06 1023 30.21 852 25.16 25.2 77.4 22 2.2 36 -80.3 -3.161
16:07 1023 30.21 852 25.16 25.1 77.2 22 2.3 36.2 -80.3 -3.161
16:08 1023 30.21 852 25.16 25.2 77.4 23 3 37.4 -80.2 -3.157
16:09 1023 30.21 852 25.16 25.3 77.5 23 2.7 36.9 -80.2 -3.157
16:10 1023 30.21 852 25.16 25.2 77.4 22 2.2 36 -80.2 -3.157
16:11 1023 30.21 852 25.16 25.3 77.5 22 2.5 36.5 -80.1 -3.154
16:12 1023 30.21 852 25.16 25.4 77.8 23 2.9 37.2 -80.1 -3.154
16:13 1023 30.21 852 25.16 25.4 77.7 21 1.9 35.5 -80 -3.15
16:14 1023 30.21 852 25.16 25.4 77.6 24 3.4 38.2 -80 -3.15
16:15 1023 30.21 852 25.16 25.4 77.7 20 1.3 34.3 -80 -3.15
16:16 1023 30.21 852 25.16 25.4 77.7 21 2 35.5 -79.9 -3.146
16:17 1023 30.21 852 25.16 25.4 77.6 20 1 33.8 -79.9 -3.146
16:18 1023 30.21 852 25.16 25.4 77.7 21 1.6 34.8 -79.8 -3.142
16:19 1023 30.21 852 25.16 25.5 77.8 20 1.4 34.5 -79.8 -3.142
16:20 1023 30.21 852 25.16 25.5 77.8 23 3.2 37.8 -79.8 -3.142
16:21 1023 30.21 852 25.16 25.6 78 22 2.5 36.5 -79.7 -3.138
16:22 1023 30.21 852 25.16 25.9 78.5 21 2.3 36.1 -79.6 -3.134
16:23 1023 30.21 852 25.16 26 78.8 22 3 37.3 -79.6 -3.134
16:24 1023 30.21 852 25.16 26.1 78.9 21 2 35.6 -79.5 -3.13
16:25 1023 30.21 852 25.16 26.1 79 20 1.6 34.9 -79.5 -3.13
16:26 1023 30.21 852 25.16 26.1 79 20 1.5 34.7 -79.5 -3.13
16:27 1023 30.21 852 25.16 26.1 78.9 21 2.4 36.3 -79.4 -3.126
16:28 1023 30.21 852 25.16 26 78.8 24 3.9 38.9 -79.4 -3.126
16:29 1023 30.21 852 25.16 26 78.7 20 1.3 34.3 -79.3 -3.122
16:30 1023 30.21 852 25.16 25.9 78.6 22 3 37.3 -79.3 -3.122
16:31 1023 30.21 852 25.16 25.8 78.5 22 2.9 37.3 -79.3 -3.122
16:32 1023 30.21 852 25.16 25.8 78.5 20 1.7 35.1 -79.2 -3.118
16:33 1023 30.21 852 25.16 25.9 78.5 21 1.8 35.3 -79.2 -3.118
16:34 1023 30.21 852 25.16 26 78.7 23 3.7 38.6 -79.1 -3.114
16:35 1023 30.21 852 25.16 26 78.8 21 2.3 36.1 -79.1 -3.114
16:36 1023 30.21 852 25.16 25.8 78.5 21 2.2 35.9 -79.1 -3.114
16:37 1023 30.21 852 25.16 25.7 78.2 23 3.6 38.4 -79.1 -3.114
16:38 1023 30.21 852 25.16 25.6 78.1 25 4.5 40.1 -79 -3.11
16:39 1023 30.21 852 25.16 25.6 78.1 23 3.2 37.8 -79 -3.11
16:40 1023 30.21 852 25.16 25.6 78.1 23 3.4 38.2 -78.9 -3.106
16:41 1023 30.21 852 25.16 25.7 78.2 23 3 37.5 -78.9 -3.106
16:42 1023 30.21 852 25.16 25.8 78.5 19 0.8 33.4 -78.9 -3.106
16:43 1023 30.21 852 25.16 25.9 78.6 20 1.7 35 -78.8 -3.102
16:44 1023 30.21 852 25.16 26.1 78.9 21 2.1 35.8 -78.8 -3.102
16:45 1023 30.21 852 25.16 26.2 79.2 22 3.1 37.6 -78.8 -3.102
16:46 1023 30.21 852 25.16 26.4 79.6 23 3.6 38.6 -78.7 -3.098
16:47 1023 30.21 852 25.16 26.6 79.9 21 2.6 36.6 -78.7 -3.098
16:48 1023 30.21 852 25.16 26.6 79.8 22 3.4 38.1 -78.7 -3.098
16:49 1023 30.21 852 25.16 26.4 79.6 19 1.2 34.2 -78.7 -3.098
16:50 1023 30.21 852 25.16 26.4 79.5 20 2.1 35.8 -78.6 -3.094
16:51 1023 30.21 852 25.16 26.3 79.3 21 2.4 36.3 -78.6 -3.094
16:52 1023 30.21 852 25.16 26.2 79.2 21 2.7 36.8 -78.5 -3.091
16:53 1023 30.21 852 25.16 26.1 79 21 2.2 36 -78.5 -3.091
16:54 1023 30.21 852 25.16 26.1 78.9 21 2 35.6 -78.5 -3.091
16:55 1023 30.21 852 25.16 25.9 78.7 21 2.4 36.3 -78.5 -3.091
16:56 1023 30.21 852 25.16 25.9 78.6 21 2.2 36 -78.4 -3.087
16:57 1023 30.21 852 25.16 25.7 78.2 19 0.5 32.9 -78.4 -3.087
16:58 1023 30.21 852 25.16 25.5 77.9 19 0.1 32.2 -78.3 -3.083
16:59 1023 30.21 852 25.16 25.5 77.9 19 0.2 32.3 -78.3 -3.083
17:00 1023 30.21 852 25.16 25.5 77.9 19 0.7 33.2 -78.3 -3.083
17:01 1022 30.18 852 25.16 25.7 78.2 18 0.1 32.1 -78.3 -3.083
17:02 1022 30.18 852 25.16 25.8 78.4 20 1.4 34.5 -78.2 -3.079
17:03 1022 30.18 852 25.16 25.8 78.4 20 1.3 34.4 -78.2 -3.079
17:04 1022 30.18 852 25.16 25.8 78.4 22 2.4 36.4 -78.2 -3.079
17:05 1022 30.18 852 25.16 25.8 78.4 21 2.2 36 -78.2 -3.079
17:06 1022 30.18 852 25.16 25.7 78.3 23 3.4 38.1 -78.2 -3.079
17:07 1022 30.18 852 25.16 25.7 78.2 20 1.3 34.3 -78.2 -3.079
17:08 1022 30.18 852 25.16 25.6 78.1 21 2 35.5 -78.2 -3.079
17:09 1022 30.18 852 25.16 25.6 78 21 2.1 35.8 -78.2 -3.079
17:10 1022 30.18 852 25.16 25.5 77.9 21 1.6 34.8 -78.1 -3.075
17:11 1022 30.18 852 25.16 25.5 77.9 24 3.9 39.1 -78.1 -3.075
17:12 1022 30.18 852 25.16 25.5 78 19 0.5 32.9 -78.1 -3.075
17:13 1022 30.18 852 25.16 25.5 77.9 19 0.2 32.3 -78.1 -3.075
17:14 1022 30.18 852 25.16 25.5 77.8 19 0.6 33.2 -78.1 -3.075
17:15 1022 30.18 852 25.16 25.5 77.9 17 -0.7 30.7 -78.1 -3.075
17:16 1022 30.18 852 25.16 25.6 78.1 20 1.1 34 -78.1 -3.075
17:17 1022 30.18 852 25.16 25.6 78.1 21 1.7 35.1 -78.1 -3.075
17:18 1022 30.18 852 25.16 25.5 77.9 19 0.8 33.4 -78.1 -3.075
17:19 1022 30.18 852 25.16 25.4 77.7 20 0.8 33.5 -78.1 -3.075
17:20 1022 30.18 852 25.16 25.4 77.8 20 1 33.8 -78.1 -3.075
17:21 1022 30.18 852 25.16 25.5 77.9 18 -0.2 31.7 -78.1 -3.075
17:22 1022 30.18 852 25.16 25.6 78.1 17 -0.8 30.6 -78.1 -3.075
17:23 1022 30.18 852 25.16 25.7 78.3 19 0.5 33 -78.1 -3.075
17:24 1022 30.18 852 25.16 25.9 78.6 20 1.8 35.3 -78.1 -3.075
17:25 1022 30.18 852 25.16 26 78.8 20 1.3 34.3 -78.1 -3.075
17:26 1022 30.18 852 25.16 26 78.8 21 2.4 36.4 -78.1 -3.075
17:27 1022 30.18 852 25.16 26.1 79 19 1.1 34 -78.1 -3.075
17:28 1022 30.18 852 25.16 26.1 79.1 17 -0.6 31 -78.1 -3.075
17:29 1022 30.18 852 25.16 26.1 78.9 19 1.1 34 -78.1 -3.075
17:30 1022 30.18 852 25.16 25.9 78.6 21 2.1 35.8 -78.1 -3.075
17:31 1022 30.18 852 25.16 25.8 78.5 20 1.7 35.1 -78.1 -3.075
17:32 1022 30.18 852 25.16 25.8 78.4 22 2.8 37 -78.1 -3.075
17:33 1022 30.18 852 25.16 25.7 78.2 21 2 35.6 -78.1 -3.075
17:34 1022 30.18 852 25.16 25.5 77.9 21 1.7 35 -78.1 -3.075
17:35 1022 30.18 851 25.13 25.4 77.7 18 -0.5 31.1 -78.1 -3.075
17:36 1022 30.18 852 25.16 25.2 77.4 20 0.7 33.2 -78.1 -3.075
17:37 1022 30.18 852 25.16 25.2 77.4 19 0.6 33 -78.1 -3.075
17:38 1022 30.18 852 25.16 25.3 77.5 20 0.7 33.2 -78.1 -3.075
17:39 1022 30.18 851 25.13 25.3 77.5 18 -0.2 31.6 -78.1 -3.075
17:40 1022 30.18 852 25.16 25.3 77.5 21 1.8 35.3 -78.1 -3.075
17:41 1022 30.18 851 25.13 25.2 77.4 23 2.7 36.8 -78.1 -3.075
17:42 1022 30.18 852 25.16 25.3 77.5 20 1.1 34.1 -78.1 -3.075
17:43 1022 30.18 852 25.16 25.4 77.7 24 3.6 38.4 -78.1 -3.075
17:44 1022 30.18 852 25.16 25.4 77.8 23 3 37.4 -78.1 -3.075
17:45 1022 30.18 852 25.16 25.5 77.9 22 2.5 36.5 -78.2 -3.079
17:46 1022 30.18 852 25.16 25.6 78 24 3.9 38.9 -78.2 -3.079
17:47 1022 30.18 852 25.16 25.6 78.1 19 0.3 32.5 -78.2 -3.079
17:48 1022 30.18 852 25.16 25.7 78.3 17 -0.7 30.7 -78.2 -3.079
17:49 1022 30.18 852 25.16 25.9 78.5 20 1.5 34.6 -78.2 -3.079
17:50 1022 30.18 852 25.16 26 78.9 19 0.7 33.2 -78.2 -3.079
17:51 1022 30.18 852 25.16 26.2 79.1 18 -0.1 31.8 -78.3 -3.083
17:52 1022 30.18 852 25.16 26.3 79.4 21 2.6 36.6 -78.3 -3.083
17:53 1022 30.18 852 25.16 26.4 79.5 21 2.8 37.1 -78.3 -3.083
17:54 1022 30.18 852 25.16 26.4 79.5 21 2.3 36.2 -78.3 -3.083
17:55 1022 30.18 852 25.16 26.3 79.3 26 5.3 41.6 -78.3 -3.083
17:56 1022 30.18 852 25.16 26.2 79.1 24 4.5 40 -78.3 -3.083
17:57 1022 30.18 852 25.16 26.1 79 21 2.6 36.7 -78.3 -3.083
17:58 1022 30.18 852 25.16 26 78.8 22 3.1 37.5 -78.4 -3.087
17:59 1022 30.18 852 25.16 26 78.7 24 4.1 39.5 -78.4 -3.087
18:00 1022 30.18 852 25.16 25.9 78.6 24 4.2 39.6 -78.4 -3.087
18:01 1022 30.18 852 25.16 25.8 78.5 25 4.4 39.9 -78.4 -3.087
18:02 1022 30.18 852 25.16 25.8 78.4 24 4.1 39.4 -78.4 -3.087
18:03 1022 30.18 852 25.16 25.7 78.2 26 5.1 41.1 -78.5 -3.091
18:04 1022 30.18 851 25.13 25.7 78.2 25 4.4 40 -78.5 -3.091
18:05 1022 30.18 851 25.13 25.7 78.2 26 5.1 41.1 -78.5 -3.091
18:06 1022 30.18 852 25.16 25.7 78.2 25 4.4 39.8 -78.5 -3.091
18:07 1022 30.18 852 25.16 25.7 78.2 27 5.6 42.2 -78.5 -3.091
18:08 1022 30.18 851 25.13 25.6 78 29 6.4 43.5 -78.6 -3.094
18:09 1022 30.18 852 25.16 25.5 77.9 26 4.8 40.6 -78.6 -3.094
18:10 1022 30.18 852 25.16 25.4 77.7 25 4.5 40 -78.6 -3.094
18:11 1022 30.18 851 25.13 25.3 77.5 26 4.6 40.2 -78.7 -3.098
18:12 1022 30.18 851 25.13 25.2 77.4 27 4.9 40.9 -78.7 -3.098
18:13 1022 30.18 851 25.13 25.2 77.3 25 4.2 39.6 -78.7 -3.098
18:14 1022 30.18 852 25.16 25.1 77.3 27 5.2 41.4 -78.8 -3.102
18:15 1022 30.18 852 25.16 25.1 77.2 27 5.2 41.4 -78.8 -3.102
18:16 1022 30.18 851 25.13 25.1 77.2 26 4.5 40.1 -78.8 -3.102
18:17 1022 30.18 851 25.13 25.2 77.3 28 5.5 41.9 -78.9 -3.106
18:18 1022 30.18 851 25.13 25.2 77.4 27 5.4 41.7 -78.9 -3.106
18:19 1022 30.18 851 25.13 25.3 77.5 26 4.8 40.6 -78.9 -3.106
18:20 1022 30.18 851 25.13 25.3 77.5 26 4.5 40.1 -79 -3.11
18:21 1022 30.18 851 25.13 25.2 77.4 27 5 41 -79 -3.11
18:22 1022 30.18 851 25.13 25.1 77.3 28 5.6 42.1 -79.1 -3.114
18:23 1022 30.18 851 25.13 25 76.9 27 5 41.1 -79.1 -3.114
18:24 1022 30.18 851 25.13 24.9 76.7 28 5.4 41.7 -79.1 -3.114
18:25 1022 30.18 851 25.13 24.8 76.6 27 4.5 40.1 -79.2 -3.118
18:26 1022 30.18 851 25.13 24.7 76.4 28 5.3 41.5 -79.2 -3.118
18:27 1022 30.18 851 25.13 24.5 76.2 27 4.4 39.9 -79.3 -3.122
18:28 1022 30.18 851 25.13 24.4 75.9 23 2.1 35.8 -79.3 -3.122
18:29 1022 30.18 851 25.13 24.3 75.7 25 3.1 37.6 -79.3 -3.122
18:30 1022 30.18 851 25.13 24.2 75.5 33 7 44.6 -79.4 -3.126
18:31 1022 30.18 851 25.13 24.1 75.3 31 6.2 43.1 -79.4 -3.126
18:32 1022 30.18 851 25.13 23.9 75 31 6.1 43.1 -79.5 -3.13
18:33 1022 30.18 851 25.13 23.8 74.8 38 8.7 47.6 -79.5 -3.13
18:34 1022 30.18 851 25.13 23.6 74.5 36 7.9 46.3 -79.6 -3.134
18:35 1022 30.18 851 25.13 23.5 74.2 32 6 42.8 -79.6 -3.134
18:36 1022 30.18 851 25.13 23.4 74 32 5.7 42.3 -79.6 -3.134
18:37 1022 30.18 851 25.13 23.4 74 30 4.9 40.9 -79.7 -3.138
18:38 1022 30.18 851 25.13 23.4 74.1 28 4.1 39.4 -79.8 -3.142
18:39 1022 30.18 851 25.13 23.5 74.3 25 2.7 36.8 -79.8 -3.142
18:40 1022 30.18 851 25.13 23.6 74.4 23 1.4 34.5 -79.9 -3.146
18:41 1022 30.18 851 25.13 23.7 74.6 25 2.7 36.8 -79.9 -3.146
18:42 1022 30.18 851 25.13 23.8 74.8 27 3.9 39 -80 -3.15
18:43 1022 30.18 851 25.13 23.8 74.9 27 3.8 38.8 -80.1 -3.154
18:44 1022 30.18 851 25.13 23.9 74.9 26 3.2 37.8 -80.1 -3.154
18:45 1022 30.18 851 25.13 23.9 74.9 30 5.4 41.7 -80.2 -3.157
18:46 1022 30.18 851 25.13 23.9 75 28 4.7 40.4 -80.3 -3.161
18:47 1022 30.18 851 25.13 23.7 74.7 26 3.4 38.2 -80.3 -3.161
18:48 1022 30.18 851 25.13 23.7 74.6 26 3 37.4 -80.4 -3.165
18:49 1022 30.18 851 25.13 23.7 74.6 25 2.9 37.1 -80.4 -3.165
18:50 1022 30.18 851 25.13 23.6 74.5 28 4.3 39.7 -80.5 -3.169
18:51 1022 30.18 851 25.13 23.5 74.2 26 3 37.5 -80.5 -3.169
18:52 1022 30.18 851 25.13 23.4 74 33 6.5 43.7 -80.6 -3.173
18:53 1022 30.18 851 25.13 23.1 73.5 38 8.3 46.9 -80.7 -3.177
18:54 1022 30.18 851 25.13 22.5 72.5 43 9.5 49 -80.7 -3.177
18:55 1022 30.18 852 25.16 22 71.5 45 9.7 49.4 -80.8 -3.181
18:56 1022 30.18 851 25.13 21.4 70.5 47 9.8 49.7 -80.8 -3.181
18:57 1022 30.18 851 25.13 20.8 69.5 48 9.7 49.5 -80.9 -3.185
18:58 1022 30.18 852 25.16 20.4 68.8 48 9.1 48.3 -80.9 -3.185
18:59 1022 30.18 852 25.16 20.2 68.3 48 9.1 48.3 -81 -3.189
19:00 1022 30.18 851 25.13 19.9 67.8 47 8.5 47.3 -81 -3.189
19:01 1022 30.18 852 25.16 19.7 67.5 48 8.7 47.6 -81.1 -3.193
19:02 1022 30.18 851 25.13 19.6 67.3 48 8.5 47.3 -81.1 -3.193
19:03 1022 30.18 852 25.16 19.5 67.1 50 9 48.2 -81.2 -3.197
19:04 1022 30.18 851 25.13 19.3 66.8 50 8.8 47.8 -81.3 -3.201
19:05 1022 30.18 852 25.16 19.2 66.6 51 8.8 47.9 -81.4 -3.205
19:06 1022 30.18 852 25.16 19.1 66.4 51 9 48.2 -81.4 -3.205
19:07 1022 30.18 852 25.16 19 66.3 48 7.9 46.3 -81.5 -3.209
19:08 1022 30.18 852 25.16 19.1 66.3 50 8.4 47.2 -81.6 -3.213
19:09 1022 30.18 852 25.16 19 66.2 50 8.5 47.4 -81.7 -3.217
19:10 1022 30.18 852 25.16 18.9 66.1 50 8.4 47.1 -81.7 -3.217
19:11 1022 30.18 852 25.16 18.8 65.9 51 8.5 47.4 -81.8 -3.22
19:12 1022 30.18 852 25.16 18.7 65.6 51 8.5 47.3 -81.9 -3.224
19:13 1022 30.18 852 25.16 18.5 65.3 48 7.4 45.4 -82 -3.228
19:14 1022 30.18 851 25.13 18.4 65.2 51 8.3 46.9 -82 -3.228
19:15 1022 30.18 852 25.16 18.3 64.9 51 8.1 46.6 -82.1 -3.232
19:16 1022 30.18 852 25.16 18.1 64.6 49 7.2 45 -82.2 -3.236
19:17 1022 30.18 852 25.16 18 64.4 46 6.5 43.7 -82.3 -3.24
19:18 1022 30.18 851 25.13 18 64.4 47 6.6 43.8 -82.4 -3.244
19:19 1022 30.18 852 25.16 17.9 64.3 49 7.1 44.8 -82.4 -3.244
19:20 1022 30.18 852 25.16 17.7 63.9 52 7.9 46.2 -82.5 -3.248
19:21 1022 30.18 851 25.13 17.4 63.3 55 8.3 46.9 -82.6 -3.252
19:22 1022 30.18 851 25.13 16.9 62.5 56 8.3 46.9 -82.7 -3.256
19:23 1022 30.18 852 25.16 16.7 62 56 8 46.4 -82.8 -3.26
19:24 1022 30.18 851 25.13 16.4 61.5 57 7.9 46.2 -82.8 -3.26
19:25 1022 30.18 851 25.13 16.2 61.2 58 7.9 46.3 -82.9 -3.264
19:26 1022 30.18 851 25.13 16.1 60.9 59 8.1 46.5 -83 -3.268
19:27 1022 30.18 851 25.13 15.8 60.4 58 7.5 45.6 -83.1 -3.272
19:28 1022 30.18 851 25.13 15.6 60.2 57 7.1 44.9 -83.1 -3.272
19:29 1022 30.18 851 25.13 15.5 60 56 6.9 44.4 -83.2 -3.276
19:30 1022 30.18 851 25.13 15.5 59.8 56 6.8 44.2 -83.3 -3.28
19:31 1022 30.18 851 25.13 15.4 59.8 56 6.8 44.2 -83.3 -3.28
19:32 1022 30.18 851 25.13 15.3 59.5 57 6.8 44.2 -83.4 -3.283
19:33 1022 30.18 851 25.13 15 59.1 57 6.8 44.2 -83.5 -3.287
19:34 1022 30.18 851 25.13 15 59 57 6.5 43.7 -83.6 -3.291
19:35 1022 30.18 851 25.13 15 58.9 56 6.3 43.4 -83.7 -3.295
19:36 1022 30.18 852 25.16 15 58.9 58 6.8 44.3 -83.7 -3.295
19:37 1022 30.18 851 25.13 14.9 58.7 58 6.8 44.3 -83.8 -3.299
19:38 1022 30.18 852 25.16 14.7 58.4 58 6.6 44 -83.9 -3.303
19:39 1022 30.18 851 25.13 14.5 58 59 6.6 43.8 -84 -3.307
19:40 1022 30.18 852 25.16 14.2 57.6 60 6.6 43.9 -84 -3.307
19:41 1022 30.18 852 25.16 14 57.2 61 6.6 43.9 -84.1 -3.311
19:42 1022 30.18 852 25.16 13.8 56.9 61 6.6 43.9 -84.2 -3.315
19:43 1022 30.18 852 25.16 13.7 56.6 62 6.6 43.9 -84.2 -3.315
19:44 1022 30.18 852 25.16 13.5 56.2 63 6.7 44 -84.3 -3.319
19:45 1022 30.18 851 25.13 13.3 55.9 64 6.6 43.9 -84.4 -3.323
19:46 1022 30.18 852 25.16 13.1 55.5 63 6.3 43.4 -84.4 -3.323
19:47 1022 30.18 852 25.16 12.9 55.2 65 6.5 43.7 -84.5 -3.327
19:48 1022 30.18 851 25.13 12.7 54.9 66 6.5 43.7 -84.6 -3.331
19:49 1022 30.18 852 25.16 12.5 54.6 66 6.3 43.4 -84.6 -3.331
19:50 1022 30.18 851 25.13 12.4 54.4 65 6 42.8 -84.7 -3.335
19:51 1022 30.18 851 25.13 12.3 54.2 64 5.8 42.4 -84.7 -3.335
19:52 1022 30.18 851 25.13 12.3 54.2 63 5.5 42 -84.8 -3.339
19:53 1022 30.18 851 25.13 12.4 54.3 63 5.6 42 -84.9 -3.343
19:54 1022 30.18 851 25.13 12.4 54.3 62 5.4 41.8 -84.9 -3.343
19:55 1022 30.18 851 25.13 12.4 54.3 61 5.1 41.3 -85 -3.346
19:56 1022 30.18 851 25.13 12.5 54.5 60 5 40.9 -85.1 -3.35
19:57 1022 30.18 851 25.13 12.6 54.6 58 4.7 40.4 -85.1 -3.35
19:58 1022 30.18 851 25.13 12.7 54.8 57 4.5 40.1 -85.2 -3.354
19:59 1022 30.18 851 25.13 12.8 55.1 57 4.6 40.2 -85.2 -3.354
20:00 1022 30.18 851 25.13 12.9 55.3 57 4.7 40.4 -85.3 -3.358
20:01 1022 30.18 851 25.13 12.9 55.3 57 4.6 40.2 -85.4 -3.362
20:02 1022 30.18 851 25.13 12.9 55.2 56 4.4 39.9 -85.4 -3.362
20:03 1022 30.18 851 25.13 12.9 55.2 55 4 39.2 -85.5 -3.366
20:04 1022 30.18 851 25.13 13 55.5 54 4 39.2 -85.5 -3.366
20:05 1022 30.18 851 25.13 13.2 55.7 53 3.9 39.1 -85.6 -3.37
20:06 1022 30.18 851 25.13 13.3 55.9 52 3.8 38.9 -85.6 -3.37
20:07 1022 30.18 851 25.13 13.4 56.1 51 3.6 38.5 -85.7 -3.374
20:08 1022 30.18 851 25.13 13.5 56.4 51 3.6 38.5 -85.7 -3.374
20:09 1022 30.18 851 25.13 13.6 56.5 51 3.7 38.7 -85.8 -3.378
20:10 1022 30.18 852 25.16 13.6 56.5 51 3.7 38.7 -85.8 -3.378
20:11 1022 30.18 852 25.16 13.6 56.5 51 3.7 38.6 -85.8 -3.378
20:12 1022 30.18 852 25.16 13.6 56.4 51 3.6 38.5 -85.9 -3.382
20:13 1022 30.18 852 25.16 13.6 56.4 50 3.4 38.2 -85.9 -3.382
20:14 1022 30.18 852 25.16 13.6 56.5 50 3.5 38.3 -86 -3.386
20:15 1022 30.18 852 25.16 13.7 56.6 49 3.3 37.9 -86 -3.386
20:16 1022 30.18 852 25.16 13.7 56.7 49 3.2 37.8 -86 -3.386
20:17 1022 30.18 852 25.16 13.8 56.9 49 3.3 37.9 -86.1 -3.39
20:18 1022 30.18 852 25.16 13.8 56.9 49 3.4 38.1 -86.1 -3.39
20:19 1022 30.18 852 25.16 13.8 56.9 49 3.4 38.2 -86.2 -3.394
20:20 1022 30.18 852 25.16 13.7 56.7 50 3.5 38.4 -86.2 -3.394
20:21 1022 30.18 852 25.16 13.6 56.5 50 3.4 38 -86.2 -3.394
20:22 1022 30.18 852 25.16 13.5 56.3 50 3.3 38 -86.3 -3.398
20:23 1022 30.18 852 25.16 13.5 56.3 50 3.3 37.9 -86.3 -3.398
20:24 1022 30.18 852 25.16 13.5 56.3 49 3.2 37.7 -86.3 -3.398
20:25 1022 30.18 852 25.16 13.5 56.3 50 3.4 38.1 -86.3 -3.398
20:26 1022 30.18 852 25.16 13.4 56.1 51 3.5 38.3 -86.4 -3.402
20:27 1022 30.18 852 25.16 13.3 56 51 3.5 38.2 -86.4 -3.402
20:28 1022 30.18 852 25.16 13.2 55.7 51 3.5 38.3 -86.4 -3.402
20:29 1023 30.21 852 25.16 13.2 55.7 52 3.5 38.3 -86.4 -3.402
20:30 1023 30.21 852 25.16 13.1 55.6 52 3.5 38.4 -86.5 -3.406
20:31 1023 30.21 852 25.16 13 55.4 52 3.5 38.3 -86.5 -3.406
20:32 1023 30.21 852 25.16 12.8 55.1 52 3.3 38 -86.5 -3.406
20:33 1023 30.21 852 25.16 12.7 54.9 53 3.4 38 -86.5 -3.406
20:34 1023 30.21 852 25.16 12.7 54.8 53 3.3 38 -86.5 -3.406
20:35 1023 30.21 852 25.16 12.6 54.7 53 3.2 37.8 -86.6 -3.409
20:36 1023 30.21 852 25.16 12.6 54.7 53 3.2 37.8 -86.6 -3.409
20:37 1023 30.21 852 25.16 12.6 54.6 52 3.1 37.6 -86.6 -3.409
20:38 1023 30.21 852 25.16 12.6 54.7 52 3.1 37.5 -86.6 -3.409
20:39 1023 30.21 852 25.16 12.7 54.8 52 3 37.4 -86.7 -3.413
20:40 1023 30.21 852 25.16 12.8 55 51 3 37.5 -86.7 -3.413
20:41 1023 30.21 852 25.16 12.7 54.9 52 3.3 37.9 -86.7 -3.413
20:42 1023 30.21 852 25.16 12.7 54.8 52 3.1 37.6 -86.7 -3.413
20:43 1023 30.21 852 25.16 12.6 54.7 52 3.2 37.7 -86.7 -3.413
20:44 1023 30.21 852 25.16 12.6 54.6 53 3.3 38 -86.8 -3.417
20:45 1023 30.21 852 25.16 12.4 54.4 53 3.2 37.8 -86.8 -3.417
20:46 1023 30.21 852 25.16 12.3 54.2 54 3.4 38.2 -86.8 -3.417
20:47 1023 30.21 852 25.16 12.2 53.9 52 2.7 36.9 -86.8 -3.417
20:48 1023 30.21 852 25.16 12.3 54.2 51 2.5 36.5 -86.9 -3.421
20:49 1023 30.21 852 25.16 12.7 54.8 50 2.5 36.5 -86.9 -3.421
20:50 1023 30.21 852 25.16 12.7 54.9 50 2.7 36.9 -86.9 -3.421
20:51 1023 30.21 852 25.16 12.8 55 50 2.6 36.7 -86.9 -3.421
20:52 1023 30.21 852 25.16 12.9 55.2 49 2.6 36.7 -86.9 -3.421
20:53 1023 30.21 852 25.16 13.1 55.5 49 2.8 37 -86.9 -3.421
20:54 1023 30.21 852 25.16 13.2 55.7 50 3 37.4 -87 -3.425
20:55 1023 30.21 852 25.16 13.3 55.9 50 3 37.4 -87 -3.425
20:56 1023 30.21 852 25.16 13.3 56 49 2.8 37.1 -87 -3.425
20:57 1023 30.21 852 25.16 13.4 56 49 3 37.4 -87 -3.425
20:58 1023 30.21 852 25.16 13.4 56.1 48 2.8 37.1 -87 -3.425
20:59 1023 30.21 852 25.16 13.4 56.2 49 3 37.4 -87.1 -3.429
21:00 1023 30.21 852 25.16 13.3 56 50 3.1 37.5 -87.1 -3.429
21:01 1023 30.21 852 25.16 13.3 56 48 2.7 36.8 -87.1 -3.429
21:02 1023 30.21 852 25.16 13.5 56.2 47 2.4 36.3 -87.1 -3.429
21:03 1023 30.21 852 25.16 13.7 56.7 46 2.4 36.3 -87.1 -3.429
21:04 1023 30.21 852 25.16 13.9 57 45 2.2 35.9 -87.1 -3.429
21:05 1023 30.21 852 25.16 14 57.3 45 2.2 36 -87.1 -3.429
21:06 1023 30.21 852 25.16 14.1 57.4 45 2.3 36.1 -87.2 -3.433
21:07 1023 30.21 852 25.16 14.2 57.6 43 1.8 35.3 -87.2 -3.433
21:08 1023 30.21 852 25.16 14.5 58.1 42 1.7 35.1 -87.2 -3.433
21:09 1023 30.21 852 25.16 14.8 58.6 41 1.9 35.4 -87.2 -3.433
21:10 1023 30.21 852 25.16 15.1 59.2 39 1.5 34.7 -87.2 -3.433
21:11 1023 30.21 852 25.16 15.4 59.6 38 1.3 34.4 -87.2 -3.433
21:12 1023 30.21 852 25.16 15.6 60 39 1.6 35 -87.3 -3.437
21:13 1023 30.21 852 25.16 15.7 60.2 39 1.8 35.3 -87.3 -3.437
21:14 1023 30.21 852 25.16 15.6 60.1 40 2 35.7 -87.3 -3.437
21:15 1023 30.21 852 25.16 15.5 59.8 40 2.1 35.8 -87.3 -3.437
21:16 1023 30.21 852 25.16 15.3 59.5 40 2 35.6 -87.3 -3.437
21:17 1023 30.21 852 25.16 15.2 59.3 41 2 35.5 -87.3 -3.437
21:18 1023 30.21 852 25.16 15.1 59.2 41 2.2 35.9 -87.3 -3.437
21:19 1023 30.21 852 25.16 15 59 40 1.6 34.8 -87.3 -3.437
21:20 1023 30.21 852 25.16 15.1 59.2 40 1.7 35 -87.3 -3.437
21:21 1023 30.21 852 25.16 15.2 59.4 39 1.5 34.7 -87.3 -3.437
21:22 1023 30.21 852 25.16 15.4 59.6 38 1.4 34.5 -87.3 -3.437
21:23 1023 30.21 852 25.16 15.6 60 37 0.8 33.5 -87.3 -3.437
21:24 1023 30.21 852 25.16 15.7 60.3 36 0.9 33.7 -87.3 -3.437
21:25 1023 30.21 852 25.16 15.8 60.5 37 1.1 34 -87.3 -3.437
21:26 1023 30.21 852 25.16 15.8 60.5 37 1.1 34.1 -87.3 -3.437
21:27 1023 30.21 852 25.16 15.9 60.5 37 1.1 34.1 -87.4 -3.441
21:28 1023 30.21 852 25.16 15.8 60.5 37 1.4 34.5 -87.4 -3.441
21:29 1023 30.21 852 25.16 15.7 60.3 39 2 35.6 -87.4 -3.441
21:30 1023 30.21 852 25.16 15.4 59.7 41 2.4 36.3 -87.4 -3.441
21:31 1023 30.21 852 25.16 15 59 43 2.6 36.6 -87.4 -3.441
21:32 1023 30.21 852 25.16 14.6 58.3 44 2.5 36.5 -87.4 -3.441
21:33 1023 30.21 852 25.16 14.3 57.8 44 2.3 36.2 -87.4 -3.441
21:34 1023 30.21 853 25.19 14.3 57.7 44 2.3 36.1 -87.4 -3.441
21:35 1023 30.21 853 25.19 14.3 57.7 44 2.2 35.9 -87.4 -3.441
21:36 1023 30.21 852 25.16 14.4 58 43 2.1 35.8 -87.4 -3.441
21:37 1023 30.21 852 25.16 14.6 58.2 42 2 35.6 -87.4 -3.441
21:38 1023 30.21 853 25.19 14.7 58.4 43 2.3 36.1 -87.4 -3.441
21:39 1023 30.21 853 25.19 14.7 58.5 42 1.9 35.4 -87.4 -3.441
21:40 1023 30.21 853 25.19 14.8 58.7 42 2.1 35.8 -87.4 -3.441
21:41 1023 30.21 853 25.19 14.9 58.8 42 2.2 36 -87.4 -3.441
21:42 1023 30.21 853 25.19 14.9 58.7 43 2.4 36.3 -87.4 -3.441
21:43 1023 30.21 853 25.19 14.8 58.6 43 2.6 36.6 -87.4 -3.441
21:44 1023 30.21 853 25.19 14.6 58.3 44 2.5 36.5 -87.4 -3.441
21:45 1023 30.21 853 25.19 14.6 58.3 45 2.8 37 -87.4 -3.441
21:46 1023 30.21 853 25.19 14.5 58.2 45 2.7 36.8 -87.4 -3.441
21:47 1023 30.21 853 25.19 14.5 58.2 45 2.7 36.8 -87.4 -3.441
21:48 1023 30.21 853 25.19 14.5 58.2 43 2.3 36.2 -87.4 -3.441
21:49 1023 30.21 853 25.19 14.6 58.3 43 2.4 36.3 -87.4 -3.441
21:50 1023 30.21 853 25.19 14.6 58.3 43 2.2 36 -87.4 -3.441
21:51 1023 30.21 853 25.19 14.6 58.4 43 2.3 36.2 -87.4 -3.441
21:52 1023 30.21 853 25.19 14.7 58.4 44 2.6 36.7 -87.5 -3.445
21:53 1023 30.21 853 25.19 14.6 58.2 44 2.4 36.4 -87.5 -3.445
21:54 1023 30.21 853 25.19 14.5 58.1 44 2.5 36.6 -87.5 -3.445
21:55 1023 30.21 853 25.19 14.3 57.7 46 2.8 37.1 -87.5 -3.445
21:56 1023 30.21 853 25.19 14 57.1 47 2.8 37 -87.5 -3.445
21:57 1023 30.21 853 25.19 13.7 56.6 48 3 37.4 -87.5 -3.445
21:58 1023 30.21 853 25.19 13.4 56.2 49 2.9 37.2 -87.5 -3.445
21:59 1023 30.21 853 25.19 13.2 55.8 48 2.4 36.3 -87.5 -3.445
22:00 1023 30.21 853 25.19 13.3 56 43 1.1 33.9 -87.5 -3.445
22:01 1023 30.21 853 25.19 14.1 57.3 41 1 33.8 -87.5 -3.445
22:02 1023 30.21 853 25.19 14.4 58 46 2.9 37.2 -87.5 -3.445
22:03 1023 30.21 853 25.19 14.2 57.5 46 2.7 36.9 -87.5 -3.445
22:04 1023 30.21 853 25.19 14.1 57.3 44 2 35.6 -87.5 -3.445
22:05 1023 30.21 853 25.19 14.3 57.7 42 1.7 35.1 -87.5 -3.445
22:06 1023 30.21 853 25.19 14.5 58 44 2.3 36.2 -87.6 -3.449
22:07 1023 30.21 853 25.19 14.5 58 42 1.9 35.4 -87.6 -3.449
22:08 1023 30.21 853 25.19 14.5 58.1 41 1.6 34.9 -87.6 -3.449
22:09 1023 30.21 853 25.19 14.7 58.4 41 1.7 35.1 -87.6 -3.449
22:10 1023 30.21 853 25.19 14.7 58.5 43 2.3 36.1 -87.6 -3.449
22:11 1023 30.21 853 25.19 14.7 58.4 40 1.3 34.4 -87.6 -3.449
22:12 1023 30.21 853 25.19 14.8 58.6 39 1.1 34 -87.6 -3.449
22:13 1023 30.21 853 25.19 15 58.9 40 1.7 35 -87.6 -3.449
22:14 1023 30.21 853 25.19 15 59 42 2.4 36.3 -87.6 -3.449
22:15 1023 30.21 853 25.19 14.7 58.4 43 2.4 36.2 -87.6 -3.449
22:16 1023 30.21 853 25.19 14.4 57.8 45 2.6 36.6 -87.6 -3.449
22:17 1023 30.21 853 25.19 14.1 57.3 45 2.5 36.6 -87.6 -3.449
22:18 1023 30.21 853 25.19 13.8 56.9 47 2.7 36.9 -87.6 -3.449
22:19 1023 30.21 853 25.19 13.6 56.5 47 2.5 36.5 -87.6 -3.449
22:20 1023 30.21 853 25.19 13.5 56.3 46 2.3 36.2 -87.7 -3.453
22:21 1023 30.21 853 25.19 13.5 56.3 46 2.1 35.8 -87.7 -3.453
22:22 1023 30.21 853 25.19 13.5 56.3 46 2.3 36.1 -87.7 -3.453
22:23 1023 30.21 853 25.19 13.4 56.2 47 2.4 36.4 -87.7 -3.453
22:24 1023 30.21 853 25.19 13.4 56 48 2.7 36.9 -87.7 -3.453
22:25 1023 30.21 853 25.19 13.2 55.7 49 2.8 37.1 -87.7 -3.453
22:26 1023 30.21 853 25.19 13 55.4 49 2.7 36.8 -87.7 -3.453
22:27 1023 30.21 853 25.19 13 55.4 49 2.7 36.8 -87.7 -3.453
22:28 1023 30.21 853 25.19 13 55.4 50 2.8 37 -87.7 -3.453
22:29 1023 30.21 853 25.19 13.1 55.5 49 2.6 36.7 -87.7 -3.453
22:30 1024 30.24 853 25.19 13.1 55.7 48 2.5 36.6 -87.7 -3.453
22:31 1024 30.24 853 25.19 13.3 56 46 2.1 35.7 -87.7 -3.453
22:32 1024 30.24 853 25.19 13.8 56.8 45 2.1 35.8 -87.8 -3.457
22:33 1024 30.24 853 25.19 13.9 57.1 45 2.3 36.2 -87.8 -3.457
22:34 1024 30.24 853 25.19 14 57.2 45 2.3 36.1 -87.8 -3.457
22:35 1023 30.21 853 25.19 14.2 57.5 43 1.8 35.3 -87.8 -3.457
22:36 1024 30.24 853 25.19 14.4 57.9 42 1.8 35.2 -87.8 -3.457
22:37 1024 30.24 853 25.19 14.5 58.2 45 3 37.3 -87.8 -3.457
22:38 1024 30.24 853 25.19 14.2 57.6 47 3.2 37.7 -87.8 -3.457
22:39 1024 30.24 853 25.19 13.9 57.1 48 3.2 37.7 -87.8 -3.457
22:40 1024 30.24 853 25.19 13.7 56.6 48 2.9 37.2 -87.8 -3.457
22:41 1024 30.24 853 25.19 13.6 56.5 46 2.4 36.3 -87.8 -3.457
22:42 1024 30.24 853 25.19 13.8 56.8 48 3 37.4 -87.8 -3.457
22:43 1024 30.24 853 25.19 13.7 56.7 46 2.5 36.4 -87.8 -3.457
22:44 1024 30.24 853 25.19 13.7 56.7 49 3.2 37.7 -87.8 -3.457
22:45 1024 30.24 853 25.19 13.5 56.4 51 3.7 38.7 -87.8 -3.457
22:46 1024 30.24 853 25.19 13.3 55.9 51 3.5 38.3 -87.8 -3.457
22:47 1024 30.24 853 25.19 13.1 55.5 51 3.2 37.7 -87.8 -3.457
22:48 1024 30.24 853 25.19 13 55.3 50 3 37.3 -87.8 -3.457
22:49 1024 30.24 853 25.19 13 55.5 50 2.9 37.2 -87.8 -3.457
22:50 1024 30.24 853 25.19 13.2 55.7 49 2.8 37.1 -87.8 -3.457
22:51 1024 30.24 853 25.19 13.4 56.1 46 2.1 35.8 -87.8 -3.457
22:52 1024 30.24 853 25.19 13.8 56.9 45 2 35.7 -87.8 -3.457
22:53 1024 30.24 853 25.19 14.1 57.4 44 2.1 35.8 -87.8 -3.457
22:54 1024 30.24 853 25.19 14.4 57.9 43 2 35.6 -87.8 -3.457
22:55 1024 30.24 853 25.19 14.6 58.2 42 1.8 35.3 -87.9 -3.461
22:56 1024 30.24 853 25.19 14.7 58.5 41 1.8 35.2 -87.9 -3.461
22:57 1024 30.24 853 25.19 14.9 58.8 42 2.1 35.8 -87.9 -3.461
22:58 1024 30.24 853 25.19 14.8 58.6 43 2.4 36.4 -87.9 -3.461
22:59 1024 30.24 853 25.19 14.6 58.3 43 2.4 36.3 -87.9 -3.461
23:00 1024 30.24 853 25.19 14.4 58 45 2.6 36.7 -87.9 -3.461
23:01 1024 30.24 853 25.19 14.3 57.7 44 2.4 36.4 -87.9 -3.461
23:02 1024 30.24 853 25.19 14.2 57.6 45 2.4 36.3 -87.9 -3.461
23:03 1024 30.24 853 25.19 14.1 57.4 44 2.2 36 -87.9 -3.461
23:04 1024 30.24 853 25.19 14.2 57.5 45 2.5 36.5 -87.9 -3.461
23:05 1024 30.24 853 25.19 14.1 57.3 45 2.5 36.5 -87.9 -3.461
23:06 1024 30.24 853 25.19 14 57.1 46 2.6 36.7 -87.9 -3.461
23:07 1024 30.24 853 25.19 13.9 57 46 2.5 36.4 -87.9 -3.461
23:08 1024 30.24 853 25.19 13.9 57 45 2.3 36.1 -87.9 -3.461
23:09 1024 30.24 853 25.19 14 57.1 45 2.2 35.9 -87.9 -3.461
23:10 1024 30.24 853 25.19 14 57.2 44 2.2 35.9 -87.9 -3.461
23:11 1024 30.24 853 25.19 14.1 57.3 44 2.1 35.8 -87.9 -3.461
23:12 1024 30.24 853 25.19 14.2 57.5 43 1.9 35.4 -87.9 -3.461
23:13 1024 30.24 853 25.19 14.3 57.7 43 2 35.5 -87.9 -3.461
23:14 1024 30.24 853 25.19 14.3 57.7 45 2.5 36.4 -87.9 -3.461
23:15 1024 30.24 853 25.19 14.1 57.4 44 2.3 36.1 -87.9 -3.461
23:16 1024 30.24 853 25.19 14 57.3 46 2.7 36.9 -87.9 -3.461
23:17 1024 30.24 853 25.19 13.9 56.9 46 2.6 36.6 -87.9 -3.461
23:18 1024 30.24 853 25.19 13.7 56.7 47 2.6 36.6 -87.9 -3.461
23:19 1024 30.24 853 25.19 13.6 56.5 45 2.1 35.8 -87.9 -3.461
23:20 1024 30.24 853 25.19 13.7 56.6 44 1.9 35.4 -87.9 -3.461
23:21 1024 30.24 853 25.19 13.8 56.9 44 1.9 35.3 -88 -3.465
23:22 1024 30.24 853 25.19 14 57.1 43 1.7 35.1 -88 -3.465
23:23 1024 30.24 853 25.19 14.2 57.5 43 1.7 35 -88 -3.465
23:24 1024 30.24 853 25.19 14.3 57.7 42 1.6 34.9 -88 -3.465
23:25 1024 30.24 853 25.19 14.4 58 40 1.2 34.2 -88 -3.465
23:26 1024 30.24 853 25.19 14.7 58.5 40 1.4 34.6 -88 -3.465
23:27 1024 30.24 853 25.19 14.8 58.6 40 1.3 34.3 -88 -3.465
23:28 1024 30.24 853 25.19 14.8 58.7 40 1.4 34.5 -88 -3.465
23:29 1024 30.24 853 25.19 14.8 58.6 41 1.7 35.1 -88 -3.465
23:30 1024 30.24 853 25.19 14.7 58.5 41 1.7 35.1 -88 -3.465
23:31 1024 30.24 853 25.19 14.6 58.2 42 1.9 35.4 -88 -3.465
23:32 1024 30.24 853 25.19 14.4 57.9 43 1.9 35.5 -88 -3.465
23:33 1024 30.24 853 25.19 14.2 57.6 42 1.7 35.1 -88 -3.465
23:34 1024 30.24 853 25.19 14.2 57.6 43 1.7 35.1 -88 -3.465
23:35 1024 30.24 853 25.19 14.2 57.6 43 1.8 35.3 -88 -3.465
23:36 1024 30.24 853 25.19 14.1 57.4 43 1.7 35.1 -88 -3.465
23:37 1024 30.24 853 25.19 14 57.3 44 2.1 35.8 -88 -3.465
23:38 1024 30.24 853 25.19 13.8 56.8 45 2.2 36 -88 -3.465
23:39 1024 30.24 853 25.19 13.7 56.7 43 1.4 34.5 -88 -3.465
23:40 1024 30.24 853 25.19 13.9 56.9 44 1.9 35.5 -88 -3.465
23:41 1024 30.24 853 25.19 13.8 56.8 44 1.8 35.2 -88 -3.465
23:42 1024 30.24 853 25.19 14 57.1 43 1.7 35.1 -88 -3.465
23:43 1024 30.24 853 25.19 14.1 57.3 43 1.8 35.3 -88 -3.465
23:44 1024 30.24 853 25.19 14.1 57.3 43 1.9 35.3 -88.1 -3.469
23:45 1024 30.24 853 25.19 14 57.3 44 2 35.7 -88.1 -3.469
23:46 1024 30.24 853 25.19 13.9 57 44 2 35.6 -88.1 -3.469
23:47 1024 30.24 853 25.19 13.8 56.9 45 2.3 36.1 -88.1 -3.469
23:48 1024 30.24 853 25.19 13.7 56.7 46 2.5 36.5 -88.1 -3.469
23:49 1024 30.24 853 25.19 13.4 56.1 47 2.5 36.5 -88.1 -3.469
23:50 1024 30.24 853 25.19 13.1 55.6 48 2.5 36.5 -88.1 -3.469
23:51 1024 30.24 853 25.19 12.8 55.1 50 2.6 36.7 -88.1 -3.469
23:52 1024 30.24 853 25.19 12.6 54.7 51 2.7 36.9 -88.1 -3.469
23:53 1024 30.24 853 25.19 12.4 54.3 52 2.9 37.2 -88.1 -3.469
23:54 1024 30.24 853 25.19 12.1 53.7 53 2.8 37 -88.1 -3.469
23:55 1024 30.24 853 25.19 11.9 53.4 53 2.6 36.6 -88.1 -3.469
23:56 1024 30.24 853 25.19 11.8 53.2 54 2.7 36.9 -88.1 -3.469
23:57 1024 30.24 853 25.19 11.6 52.9 55 2.9 37.1 -88.1 -3.469
23:58 1024 30.24 853 25.19 11.4 52.6 55 2.7 36.9 -88.1 -3.469
23:59 1024 30.24 853 25.19 11.4 52.4 55 2.6 36.6 -88.1 -3.469
24:00 1024 30.24 853 25.19 11.3 52.3 55 2.7 36.9 -88.1 -3.469